Wetterdaten: Dienstag, 10.12.2019
Datum Zeit Temp. Aussen Temp. o. S. Temp +5cm Feuchte Auss Luftdruck Regen Sonnenschein Regendauer Solar Windben Empfang
10.12.2019 00:00 3,4 C 2,2 C 1,7 C 95 % 1020,8 hPa 0,0 l/m 0 min 0 min 0 W/m 3,2 km/h (1 Bft) 100,00 %
10.12.2019 00:02 3,4 C 2,2 C 1,7 C 95 % 1020,9 hPa 0,0 l/m 0 min 0 min 0 W/m 12,9 km/h (3 Bft) 100,00 %
10.12.2019 00:04 3,3 C 2,2 C 1,7 C 95 % 1020,9 hPa 0,0 l/m 0 min 0 min 0 W/m 6,4 km/h (2 Bft) 95,74 %
10.12.2019 00:07 3,3 C 2,2 C 1,7 C 94 % 1021,0 hPa 0,0 l/m 0 min 0 min 0 W/m 3,2 km/h (1 Bft) 98,57 %
10.12.2019 00:08 3,3 C 2,2 C 1,7 C 94 % 1021,0 hPa 0,0 l/m 0 min 0 min 0 W/m 3,2 km/h (1 Bft) 100,00 %
10.12.2019 00:10 3,3 C 2,2 C 1,7 C 94 % 1021,0 hPa 0,0 l/m 0 min 0 min 0 W/m 6,4 km/h (2 Bft) 97,87 %
10.12.2019 00:12 3,2 C 1,7 C 1,7 C 94 % 1021,0 hPa 0,0 l/m 0 min 0 min 0 W/m 6,4 km/h (2 Bft) 97,83 %
10.12.2019 00:14 3,2 C 2,2 C 1,7 C 94 % 1021,1 hPa 0,0 l/m 0 min 0 min 0 W/m 6,4 km/h (2 Bft) 97,87 %
10.12.2019 00:16 3,2 C 2,2 C 1,7 C 94 % 1021,1 hPa 0,0 l/m 0 min 0 min 0 W/m 3,2 km/h (1 Bft) 97,87 %
10.12.2019 00:18 3,1 C 2,2 C 1,7 C 94 % 1021,1 hPa 0,0 l/m 0 min 0 min 0 W/m 9,7 km/h (2 Bft) 100,00 %
10.12.2019 00:20 3,1 C 1,7 C 1,7 C 94 % 1021,1 hPa 0,0 l/m 0 min 0 min 0 W/m 9,7 km/h (2 Bft) 100,00 %
10.12.2019 00:22 3,1 C 2,2 C 1,7 C 94 % 1021,2 hPa 0,0 l/m 0 min 0 min 0 W/m 6,4 km/h (2 Bft) 100,00 %
10.12.2019 00:24 3,1 C 2,2 C 1,7 C 94 % 1021,3 hPa 0,0 l/m 0 min 0 min 0 W/m 6,4 km/h (2 Bft) 100,00 %
10.12.2019 00:26 3,1 C 2,2 C 1,7 C 95 % 1021,3 hPa 0,0 l/m 0 min 0 min 0 W/m 6,4 km/h (2 Bft) 100,00 %
10.12.2019 00:28 3,0 C 2,2 C 1,7 C 95 % 1021,3 hPa 0,0 l/m 0 min 0 min 0 W/m 9,7 km/h (2 Bft) 100,00 %
10.12.2019 00:30 3,0 C 1,7 C 1,7 C 95 % 1021,3 hPa 0,0 l/m 0 min 0 min 0 W/m 9,7 km/h (2 Bft) 100,00 %
10.12.2019 00:32 3,0 C 2,2 C 1,7 C 95 % 1021,3 hPa 0,0 l/m 0 min 0 min 0 W/m 9,7 km/h (2 Bft) 100,00 %
10.12.2019 00:34 2,9 C 1,7 C 1,7 C 95 % 1021,3 hPa 0,0 l/m 0 min 0 min 0 W/m 6,4 km/h (2 Bft) 97,83 %
10.12.2019 00:36 2,9 C 1,7 C 1,7 C 95 % 1021,4 hPa 0,0 l/m 0 min 0 min 0 W/m 12,9 km/h (3 Bft) 100,00 %
10.12.2019 00:38 2,9 C 2,2 C 1,7 C 94 % 1021,4 hPa 0,0 l/m 0 min 0 min 0 W/m 6,4 km/h (2 Bft) 100,00 %
10.12.2019 00:40 2,9 C 1,7 C 1,7 C 95 % 1021,4 hPa 0,0 l/m 0 min 0 min 0 W/m 6,4 km/h (2 Bft) 100,00 %
10.12.2019 00:42 2,9 C 1,7 C 1,7 C 95 % 1021,4 hPa 0,0 l/m 0 min 0 min 0 W/m 3,2 km/h (1 Bft) 100,00 %
10.12.2019 00:44 2,9 C 1,7 C 1,7 C 95 % 1021,4 hPa 0,0 l/m 0 min 0 min 0 W/m 3,2 km/h (1 Bft) 100,00 %
10.12.2019 00:46 2,8 C 1,7 C 1,1 C 95 % 1021,5 hPa 0,0 l/m 0 min 0 min 0 W/m 6,4 km/h (2 Bft) 97,83 %
10.12.2019 00:48 2,8 C 1,7 C 1,1 C 95 % 1021,5 hPa 0,0 l/m 0 min 0 min 0 W/m 3,2 km/h (1 Bft) 100,00 %
10.12.2019 00:50 2,8 C 1,7 C 1,1 C 95 % 1021,6 hPa 0,0 l/m 0 min 0 min 0 W/m 6,4 km/h (2 Bft) 100,00 %
10.12.2019 00:52 2,8 C 1,7 C 1,1 C 95 % 1021,6 hPa 0,0 l/m 0 min 0 min 0 W/m 3,2 km/h (1 Bft) 95,74 %
10.12.2019 00:54 2,8 C 1,7 C 1,1 C 95 % 1021,6 hPa 0,0 l/m 0 min 0 min 0 W/m 3,2 km/h (1 Bft) 97,87 %
10.12.2019 00:56 2,8 C 1,7 C 1,1 C 95 % 1021,6 hPa 0,0 l/m 0 min 0 min 0 W/m 3,2 km/h (1 Bft) 100,00 %
10.12.2019 00:58 2,7 C 1,7 C 1,1 C 95 % 1021,7 hPa 0,0 l/m 0 min 0 min 0 W/m 3,2 km/h (1 Bft) 97,83 %
10.12.2019 01:00 2,7 C 1,7 C 1,1 C 95 % 1021,7 hPa 0,0 l/m 0 min 0 min 0 W/m 3,2 km/h (1 Bft) 97,87 %
10.12.2019 01:02 2,7 C 1,7 C 1,1 C 95 % 1021,8 hPa 0,0 l/m 0 min 0 min 0 W/m 3,2 km/h (1 Bft) 97,87 %
10.12.2019 01:04 2,7 C 1,7 C 1,1 C 95 % 1021,8 hPa 0,0 l/m 0 min 0 min 0 W/m 16,1 km/h (3 Bft) 95,74 %
10.12.2019 01:06 2,7 C 1,7 C 1,1 C 95 % 1021,9 hPa 0,0 l/m 0 min 0 min 0 W/m 6,4 km/h (2 Bft) 97,87 %
10.12.2019 01:08 2,7 C 1,7 C 1,1 C 95 % 1021,9 hPa 0,0 l/m 0 min 0 min 0 W/m 6,4 km/h (2 Bft) 97,87 %
10.12.2019 01:10 2,7 C 1,7 C 1,1 C 95 % 1022,0 hPa 0,0 l/m 0 min 0 min 0 W/m 16,1 km/h (3 Bft) 97,83 %
10.12.2019 01:12 2,7 C 2,2 C 1,1 C 95 % 1022,1 hPa 0,0 l/m 0 min 0 min 0 W/m 6,4 km/h (2 Bft) 97,87 %
10.12.2019 01:14 2,7 C 2,2 C 1,7 C 95 % 1022,0 hPa 0,0 l/m 0 min 0 min 0 W/m 12,9 km/h (3 Bft) 97,87 %
10.12.2019 01:16 2,7 C 2,2 C 1,7 C 95 % 1022,0 hPa 0,2 l/m 0 min 0 min 0 W/m 9,7 km/h (2 Bft) 97,87 %
10.12.2019 01:18 2,7 C 2,2 C 1,7 C 95 % 1022,0 hPa 0,0 l/m 0 min 0 min 0 W/m 3,2 km/h (1 Bft) 97,87 %
10.12.2019 01:20 2,7 C 2,2 C 1,7 C 95 % 1022,1 hPa 0,0 l/m 0 min 0 min 0 W/m 6,4 km/h (2 Bft) 97,83 %
10.12.2019 01:22 2,7 C 2,2 C 1,7 C 95 % 1022,1 hPa 0,0 l/m 0 min 0 min 0 W/m 9,7 km/h (2 Bft) 95,74 %
10.12.2019 01:24 2,7 C 2,2 C 1,7 C 95 % 1022,1 hPa 0,0 l/m 0 min 0 min 0 W/m 3,2 km/h (1 Bft) 97,87 %
10.12.2019 01:26 2,8 C 2,2 C 1,7 C 95 % 1022,2 hPa 0,0 l/m 0 min 0 min 0 W/m 3,2 km/h (1 Bft) 59,57 %
10.12.2019 01:28 2,8 C 2,2 C 1,7 C 95 % 1022,1 hPa 0,0 l/m 0 min 0 min 0 W/m 3,2 km/h (1 Bft) 93,33 %
10.12.2019 01:30 2,8 C 2,2 C 1,7 C 95 % 1022,1 hPa 0,0 l/m 0 min 0 min 0 W/m 6,4 km/h (2 Bft) 97,87 %
10.12.2019 01:32 2,8 C 2,2 C 1,7 C 95 % 1022,1 hPa 0,0 l/m 0 min 0 min 0 W/m 6,4 km/h (2 Bft) 97,83 %
10.12.2019 01:34 2,9 C 2,2 C 1,7 C 95 % 1022,1 hPa 0,0 l/m 0 min 0 min 0 W/m 6,4 km/h (2 Bft) 97,87 %
10.12.2019 01:36 2,9 C 2,2 C 1,7 C 95 % 1022,3 hPa 0,0 l/m 0 min 0 min 0 W/m 3,2 km/h (1 Bft) 97,87 %
10.12.2019 01:38 2,9 C 2,2 C 1,7 C 96 % 1022,2 hPa 0,0 l/m 0 min 0 min 0 W/m 9,7 km/h (2 Bft) 97,87 %
10.12.2019 01:40 2,9 C 2,2 C 1,7 C 96 % 1022,3 hPa 0,0 l/m 0 min 0 min 0 W/m 6,4 km/h (2 Bft) 95,74 %
10.12.2019 01:42 2,9 C 2,2 C 1,7 C 96 % 1022,2 hPa 0,0 l/m 0 min 0 min 0 W/m 12,9 km/h (3 Bft) 100,00 %
10.12.2019 01:44 2,9 C 2,2 C 1,7 C 96 % 1022,3 hPa 0,0 l/m 0 min 0 min 0 W/m 3,2 km/h (1 Bft) 100,00 %
10.12.2019 01:46 2,9 C 2,2 C 1,7 C 96 % 1022,2 hPa 0,0 l/m 0 min 0 min 0 W/m 3,2 km/h (1 Bft) 100,00 %
10.12.2019 01:48 2,9 C 2,2 C 1,7 C 96 % 1022,1 hPa 0,0 l/m 0 min 0 min 0 W/m 3,2 km/h (1 Bft) 97,87 %
10.12.2019 01:50 2,9 C 2,2 C 1,7 C 96 % 1022,2 hPa 0,0 l/m 0 min 0 min 0 W/m 3,2 km/h (1 Bft) 97,87 %
10.12.2019 01:52 2,9 C 2,2 C 1,7 C 96 % 1022,2 hPa 0,0 l/m 0 min 0 min 0 W/m 9,7 km/h (2 Bft) 95,74 %
10.12.2019 01:54 2,9 C 2,2 C 1,7 C 96 % 1022,3 hPa 0,0 l/m 0 min 0 min 0 W/m 6,4 km/h (2 Bft) 97,87 %
10.12.2019 01:56 2,9 C 2,2 C 1,7 C 96 % 1022,2 hPa 0,0 l/m 0 min 0 min 0 W/m 6,4 km/h (2 Bft) 97,83 %
10.12.2019 01:58 2,9 C 2,2 C 1,7 C 96 % 1022,2 hPa 0,0 l/m 0 min 0 min 0 W/m 6,4 km/h (2 Bft) 97,87 %
10.12.2019 02:00 2,9 C 2,2 C 1,7 C 96 % 1022,3 hPa 0,0 l/m 0 min 0 min 0 W/m 9,7 km/h (2 Bft) 97,87 %
10.12.2019 02:02 2,9 C 2,2 C 1,7 C 96 % 1022,4 hPa 0,0 l/m 0 min 0 min 0 W/m 6,4 km/h (2 Bft) 94,55 %
10.12.2019 02:04 2,9 C 2,2 C 1,7 C 96 % 1022,4 hPa 0,0 l/m 0 min 0 min 0 W/m 6,4 km/h (2 Bft) 95,74 %
10.12.2019 02:06 2,9 C 2,2 C 1,7 C 96 % 1022,4 hPa 0,0 l/m 0 min 0 min 0 W/m 6,4 km/h (2 Bft) 97,87 %
10.12.2019 02:08 3,0 C 2,2 C 1,7 C 96 % 1022,5 hPa 0,0 l/m 0 min 0 min 0 W/m 3,2 km/h (1 Bft) 97,87 %
10.12.2019 02:10 3,0 C 2,2 C 1,7 C 96 % 1022,5 hPa 0,0 l/m 0 min 0 min 0 W/m 3,2 km/h (1 Bft) 97,83 %
10.12.2019 02:12 3,0 C 2,2 C 1,7 C 96 % 1022,6 hPa 0,0 l/m 0 min 0 min 0 W/m 6,4 km/h (2 Bft) 97,87 %
10.12.2019 02:14 3,0 C 2,2 C 1,7 C 96 % 1022,7 hPa 0,0 l/m 0 min 0 min 0 W/m 6,4 km/h (2 Bft) 97,87 %
10.12.2019 02:16 3,0 C 2,2 C 1,7 C 96 % 1022,7 hPa 0,0 l/m 0 min 0 min 0 W/m 6,4 km/h (2 Bft) 95,74 %
10.12.2019 02:18 3,0 C 2,2 C 1,7 C 96 % 1022,7 hPa 0,0 l/m 0 min 0 min 0 W/m 0,0 km/h (0 Bft) 96,00 %
10.12.2019 02:20 3,0 C 2,8 C 2,2 C 96 % 1022,7 hPa 0,0 l/m 0 min 0 min 0 W/m 3,2 km/h (1 Bft) 97,83 %
10.12.2019 02:22 3,0 C 2,8 C 2,2 C 96 % 1022,8 hPa 0,0 l/m 0 min 0 min 0 W/m 3,2 km/h (1 Bft) 51,16 %
10.12.2019 02:24 3,1 C 2,8 C 2,2 C 96 % 1022,9 hPa 0,0 l/m 0 min 0 min 0 W/m 6,4 km/h (2 Bft) 97,87 %
10.12.2019 02:26 3,1 C 2,8 C 2,2 C 96 % 1022,9 hPa 0,0 l/m 0 min 0 min 0 W/m 6,4 km/h (2 Bft) 97,87 %
10.12.2019 02:28 3,1 C 2,2 C 1,7 C 96 % 1022,9 hPa 0,0 l/m 0 min 0 min 0 W/m 3,2 km/h (1 Bft) 97,87 %
10.12.2019 02:30 3,1 C 2,2 C 1,7 C 96 % 1023,0 hPa 0,0 l/m 0 min 0 min 0 W/m 9,7 km/h (2 Bft) 97,87 %
10.12.2019 02:32 3,1 C 2,2 C 1,7 C 96 % 1023,0 hPa 0,0 l/m 0 min 0 min 0 W/m 6,4 km/h (2 Bft) 97,83 %
10.12.2019 02:34 3,1 C 2,2 C 1,7 C 96 % 1023,0 hPa 0,0 l/m 0 min 0 min 0 W/m 6,4 km/h (2 Bft) 97,87 %
10.12.2019 02:36 3,1 C 2,2 C 1,7 C 96 % 1023,0 hPa 0,0 l/m 0 min 0 min 0 W/m 3,2 km/h (1 Bft) 97,87 %
10.12.2019 02:38 3,0 C 2,2 C 1,7 C 96 % 1023,0 hPa 0,0 l/m 0 min 0 min 0 W/m 0,0 km/h (0 Bft) 100,00 %
10.12.2019 02:40 3,0 C 1,7 C 1,7 C 96 % 1023,0 hPa 0,0 l/m 0 min 0 min 0 W/m 3,2 km/h (1 Bft) 100,00 %
10.12.2019 02:42 2,9 C 1,7 C 1,1 C 96 % 1023,0 hPa 0,0 l/m 0 min 0 min 0 W/m 0,0 km/h (0 Bft) 97,87 %
10.12.2019 02:44 2,9 C 1,7 C 1,1 C 96 % 1023,0 hPa 0,0 l/m 0 min 0 min 0 W/m 3,2 km/h (1 Bft) 95,65 %
10.12.2019 02:46 2,9 C 1,7 C 1,1 C 96 % 1023,0 hPa 0,0 l/m 0 min 0 min 0 W/m 0,0 km/h (0 Bft) 97,87 %
10.12.2019 02:48 2,9 C 1,7 C 1,1 C 96 % 1023,1 hPa 0,0 l/m 0 min 0 min 0 W/m 0,0 km/h (0 Bft) 97,87 %
10.12.2019 02:50 2,8 C 1,7 C 1,1 C 96 % 1023,2 hPa 0,0 l/m 0 min 0 min 0 W/m 3,2 km/h (1 Bft) 97,87 %
10.12.2019 02:52 2,8 C 1,7 C 1,1 C 96 % 1023,2 hPa 0,0 l/m 0 min 0 min 0 W/m 0,0 km/h (0 Bft) 97,87 %
10.12.2019 02:54 2,8 C 1,7 C 1,1 C 96 % 1023,3 hPa 0,0 l/m 0 min 0 min 0 W/m 0,0 km/h (0 Bft) 97,83 %
10.12.2019 02:56 2,8 C 1,7 C 1,1 C 96 % 1023,3 hPa 0,0 l/m 0 min 0 min 0 W/m 3,2 km/h (1 Bft) 97,87 %
10.12.2019 02:58 2,7 C 1,7 C 1,1 C 96 % 1023,3 hPa 0,0 l/m 0 min 0 min 0 W/m 3,2 km/h (1 Bft) 97,87 %
10.12.2019 03:00 2,7 C 1,7 C 1,1 C 96 % 1023,5 hPa 0,0 l/m 0 min 0 min 0 W/m 6,4 km/h (2 Bft) 97,87 %
10.12.2019 03:02 2,7 C 1,7 C 1,1 C 96 % 1023,5 hPa 0,0 l/m 0 min 0 min 0 W/m 3,2 km/h (1 Bft) 95,74 %
10.12.2019 03:04 2,7 C 1,7 C 1,1 C 96 % 1023,6 hPa 0,0 l/m 0 min 0 min 0 W/m 6,4 km/h (2 Bft) 97,87 %
10.12.2019 03:06 2,7 C 1,7 C 1,1 C 96 % 1023,6 hPa 0,0 l/m 0 min 0 min 0 W/m 0,0 km/h (0 Bft) 97,83 %
10.12.2019 03:08 2,6 C 1,7 C 1,1 C 96 % 1023,6 hPa 0,0 l/m 0 min 0 min 0 W/m 0,0 km/h (0 Bft) 97,87 %
10.12.2019 03:10 2,6 C 1,7 C 1,1 C 96 % 1023,6 hPa 0,0 l/m 0 min 0 min 0 W/m 0,0 km/h (0 Bft) 95,74 %
10.12.2019 03:12 2,6 C 1,7 C 0,6 C 96 % 1023,6 hPa 0,0 l/m 0 min 0 min 0 W/m 0,0 km/h (0 Bft) 97,87 %
10.12.2019 03:14 2,6 C 1,1 C 0,6 C 96 % 1023,6 hPa 0,0 l/m 0 min 0 min 0 W/m 3,2 km/h (1 Bft) 97,87 %
10.12.2019 03:16 2,6 C 1,1 C 0,6 C 96 % 1023,7 hPa 0,0 l/m 0 min 0 min 0 W/m 3,2 km/h (1 Bft) 97,83 %
10.12.2019 03:18 2,5 C 1,7 C 0,6 C 96 % 1023,6 hPa 0,0 l/m 0 min 0 min 0 W/m 3,2 km/h (1 Bft) 97,87 %
10.12.2019 03:20 2,5 C 1,1 C 0,6 C 96 % 1023,6 hPa 0,0 l/m 0 min 0 min 0 W/m 3,2 km/h (1 Bft) 95,74 %
10.12.2019 03:22 2,5 C 1,7 C 0,6 C 96 % 1023,6 hPa 0,0 l/m 0 min 0 min 0 W/m 3,2 km/h (1 Bft) 95,74 %
10.12.2019 03:24 2,4 C 1,7 C 1,1 C 96 % 1023,7 hPa 0,0 l/m 0 min 0 min 0 W/m 3,2 km/h (1 Bft) 93,62 %
10.12.2019 03:26 2,4 C 1,7 C 1,1 C 96 % 1023,6 hPa 0,0 l/m 0 min 0 min 0 W/m 3,2 km/h (1 Bft) 95,74 %
10.12.2019 03:28 2,4 C 1,7 C 1,1 C 96 % 1023,8 hPa 0,0 l/m 0 min 0 min 0 W/m 3,2 km/h (1 Bft) 93,48 %
10.12.2019 03:30 2,4 C 1,7 C 1,1 C 96 % 1023,8 hPa 0,0 l/m 0 min 0 min 0 W/m 3,2 km/h (1 Bft) 95,74 %
10.12.2019 03:32 2,4 C 1,7 C 1,1 C 96 % 1023,8 hPa 0,0 l/m 0 min 0 min 0 W/m 3,2 km/h (1 Bft) 95,74 %
10.12.2019 03:34 2,4 C 1,7 C 1,1 C 96 % 1023,8 hPa 0,0 l/m 0 min 0 min 0 W/m 6,4 km/h (2 Bft) 95,74 %
10.12.2019 03:36 2,4 C 1,7 C 1,1 C 96 % 1023,8 hPa 0,0 l/m 0 min 0 min 0 W/m 0,0 km/h (0 Bft) 93,62 %
10.12.2019 03:38 2,4 C 1,7 C 1,1 C 96 % 1023,7 hPa 0,0 l/m 0 min 0 min 0 W/m 3,2 km/h (1 Bft) 95,74 %
10.12.2019 03:40 2,4 C 1,7 C 1,1 C 96 % 1023,8 hPa 0,0 l/m 0 min 0 min 0 W/m 9,7 km/h (2 Bft) 95,65 %
10.12.2019 03:42 2,4 C 1,7 C 1,1 C 96 % 1023,8 hPa 0,0 l/m 0 min 0 min 0 W/m 9,7 km/h (2 Bft) 95,74 %
10.12.2019 03:44 2,4 C 1,7 C 1,1 C 96 % 1023,8 hPa 0,0 l/m 0 min 0 min 0 W/m 9,7 km/h (2 Bft) 95,74 %
10.12.2019 03:46 2,4 C 2,2 C 1,7 C 96 % 1023,9 hPa 0,0 l/m 0 min 0 min 0 W/m 6,4 km/h (2 Bft) 95,74 %
10.12.2019 03:48 2,4 C 2,2 C 1,7 C 96 % 1024,0 hPa 0,0 l/m 0 min 0 min 0 W/m 9,7 km/h (2 Bft) 97,87 %
10.12.2019 03:50 2,4 C 2,2 C 1,7 C 96 % 1024,0 hPa 0,0 l/m 0 min 0 min 0 W/m 6,4 km/h (2 Bft) 97,87 %
10.12.2019 03:52 2,4 C 2,2 C 1,7 C 96 % 1024,0 hPa 0,0 l/m 0 min 0 min 0 W/m 6,4 km/h (2 Bft) 97,83 %
10.12.2019 03:54 2,5 C 2,2 C 1,7 C 96 % 1024,1 hPa 0,0 l/m 0 min 0 min 0 W/m 9,7 km/h (2 Bft) 97,87 %
10.12.2019 03:56 2,6 C 2,2 C 1,7 C 96 % 1024,1 hPa 0,0 l/m 0 min 0 min 0 W/m 12,9 km/h (3 Bft) 95,74 %
10.12.2019 03:58 2,6 C 2,2 C 1,7 C 96 % 1024,1 hPa 0,0 l/m 0 min 0 min 0 W/m 9,7 km/h (2 Bft) 100,00 %
10.12.2019 04:00 2,6 C 2,2 C 1,7 C 96 % 1024,2 hPa 0,0 l/m 0 min 0 min 0 W/m 12,9 km/h (3 Bft) 100,00 %
10.12.2019 04:02 2,6 C 2,2 C 1,7 C 96 % 1024,3 hPa 0,0 l/m 0 min 0 min 0 W/m 3,2 km/h (1 Bft) 94,74 %
10.12.2019 04:04 2,6 C 2,2 C 1,7 C 96 % 1024,3 hPa 0,0 l/m 0 min 0 min 0 W/m 0,0 km/h (0 Bft) 100,00 %
10.12.2019 04:06 2,7 C 2,8 C 1,7 C 96 % 1024,3 hPa 0,0 l/m 0 min 0 min 0 W/m 12,9 km/h (3 Bft) 100,00 %
10.12.2019 04:08 2,7 C 2,8 C 1,7 C 96 % 1024,3 hPa 0,0 l/m 0 min 0 min 0 W/m 6,4 km/h (2 Bft) 68,09 %
10.12.2019 04:10 2,7 C 2,8 C 2,2 C 96 % 1024,4 hPa 0,0 l/m 0 min 0 min 0 W/m 6,4 km/h (2 Bft) 88,89 %
10.12.2019 04:12 2,8 C 2,8 C 2,2 C 96 % 1024,4 hPa 0,0 l/m 0 min 0 min 0 W/m 6,4 km/h (2 Bft) 100,00 %
10.12.2019 04:14 2,8 C 2,8 C 2,2 C 96 % 1024,4 hPa 0,0 l/m 0 min 0 min 0 W/m 6,4 km/h (2 Bft) 100,00 %
10.12.2019 04:16 2,8 C 2,8 C 2,2 C 96 % 1024,4 hPa 0,0 l/m 0 min 0 min 0 W/m 6,4 km/h (2 Bft) 100,00 %
10.12.2019 04:18 2,8 C 2,8 C 2,2 C 96 % 1024,4 hPa 0,0 l/m 0 min 0 min 0 W/m 3,2 km/h (1 Bft) 100,00 %
10.12.2019 04:20 2,9 C 2,8 C 2,2 C 96 % 1024,4 hPa 0,0 l/m 0 min 0 min 0 W/m 3,2 km/h (1 Bft) 100,00 %
10.12.2019 04:22 2,9 C 2,8 C 2,2 C 96 % 1024,4 hPa 0,0 l/m 0 min 0 min 0 W/m 6,4 km/h (2 Bft) 98,18 %
10.12.2019 04:24 2,9 C 2,8 C 2,2 C 96 % 1024,4 hPa 0,0 l/m 0 min 0 min 0 W/m 3,2 km/h (1 Bft) 100,00 %
10.12.2019 04:26 2,9 C 2,8 C 2,2 C 96 % 1024,4 hPa 0,0 l/m 0 min 0 min 0 W/m 6,4 km/h (2 Bft) 97,14 %
10.12.2019 04:28 2,9 C 2,8 C 2,2 C 96 % 1024,5 hPa 0,0 l/m 0 min 0 min 0 W/m 3,2 km/h (1 Bft) 97,87 %
10.12.2019 04:30 3,0 C 2,8 C 2,2 C 96 % 1024,5 hPa 0,0 l/m 0 min 0 min 0 W/m 3,2 km/h (1 Bft) 97,87 %
10.12.2019 04:32 3,0 C 2,8 C 2,2 C 96 % 1024,5 hPa 0,0 l/m 0 min 0 min 0 W/m 6,4 km/h (2 Bft) 95,74 %
10.12.2019 04:34 3,1 C 2,8 C 2,2 C 96 % 1024,4 hPa 0,0 l/m 0 min 0 min 0 W/m 3,2 km/h (1 Bft) 97,87 %
10.12.2019 04:36 3,1 C 2,8 C 2,2 C 96 % 1024,4 hPa 0,0 l/m 0 min 0 min 0 W/m 6,4 km/h (2 Bft) 97,87 %
10.12.2019 04:38 3,1 C 2,8 C 2,2 C 96 % 1024,4 hPa 0,0 l/m 0 min 0 min 0 W/m 3,2 km/h (1 Bft) 97,83 %
10.12.2019 04:40 3,1 C 2,2 C 1,7 C 96 % 1024,4 hPa 0,0 l/m 0 min 0 min 0 W/m 3,2 km/h (1 Bft) 93,62 %
10.12.2019 04:42 3,1 C 2,2 C 1,7 C 96 % 1024,4 hPa 0,0 l/m 0 min 0 min 0 W/m 6,4 km/h (2 Bft) 95,74 %
10.12.2019 04:44 3,1 C 2,2 C 1,7 C 96 % 1024,4 hPa 0,0 l/m 0 min 0 min 0 W/m 3,2 km/h (1 Bft) 97,87 %
10.12.2019 04:46 3,0 C 2,2 C 1,7 C 96 % 1024,4 hPa 0,0 l/m 0 min 0 min 0 W/m 3,2 km/h (1 Bft) 97,87 %
10.12.2019 04:48 3,0 C 1,7 C 1,7 C 96 % 1024,4 hPa 0,0 l/m 0 min 0 min 0 W/m 6,4 km/h (2 Bft) 97,87 %
10.12.2019 04:50 2,9 C 1,7 C 1,7 C 96 % 1024,5 hPa 0,0 l/m 0 min 0 min 0 W/m 3,2 km/h (1 Bft) 97,83 %
10.12.2019 04:52 2,9 C 1,7 C 1,7 C 96 % 1024,5 hPa 0,0 l/m 0 min 0 min 0 W/m 3,2 km/h (1 Bft) 97,87 %
10.12.2019 04:54 2,9 C 1,7 C 1,1 C 96 % 1024,4 hPa 0,0 l/m 0 min 0 min 0 W/m 0,0 km/h (0 Bft) 97,87 %
10.12.2019 04:56 2,9 C 1,7 C 1,1 C 96 % 1024,4 hPa 0,0 l/m 0 min 0 min 0 W/m 0,0 km/h (0 Bft) 97,87 %
10.12.2019 04:58 2,9 C 1,7 C 1,1 C 96 % 1024,4 hPa 0,0 l/m 0 min 0 min 0 W/m 0,0 km/h (0 Bft) 95,74 %
10.12.2019 05:00 2,8 C 1,7 C 1,1 C 96 % 1024,4 hPa 0,0 l/m 0 min 0 min 0 W/m 0,0 km/h (0 Bft) 97,83 %
10.12.2019 05:02 2,8 C 1,1 C 0,6 C 96 % 1024,4 hPa 0,0 l/m 0 min 0 min 0 W/m 0,0 km/h (0 Bft) 97,87 %
10.12.2019 05:04 2,8 C 1,1 C 0,6 C 96 % 1024,5 hPa 0,0 l/m 0 min 0 min 0 W/m 0,0 km/h (0 Bft) 97,87 %
10.12.2019 05:06 2,8 C 1,1 C 0,6 C 96 % 1024,6 hPa 0,0 l/m 0 min 0 min 0 W/m 0,0 km/h (0 Bft) 97,87 %
10.12.2019 05:08 2,7 C 1,1 C 0,0 C 96 % 1024,6 hPa 0,0 l/m 0 min 0 min 0 W/m 0,0 km/h (0 Bft) 97,87 %
10.12.2019 05:10 2,7 C 1,1 C 0,0 C 96 % 1024,6 hPa 0,0 l/m 0 min 0 min 0 W/m 0,0 km/h (0 Bft) 97,87 %
10.12.2019 05:12 2,7 C 1,1 C 0,0 C 96 % 1024,6 hPa 0,0 l/m 0 min 0 min 0 W/m 0,0 km/h (0 Bft) 100,00 %
10.12.2019 05:14 2,7 C 0,6 C 0,0 C 96 % 1024,6 hPa 0,0 l/m 0 min 0 min 0 W/m 0,0 km/h (0 Bft) 100,00 %
10.12.2019 05:16 2,6 C 0,6 C 0,0 C 96 % 1024,6 hPa 0,0 l/m 0 min 0 min 0 W/m 0,0 km/h (0 Bft) 95,74 %
10.12.2019 05:18 2,6 C 0,6 C 0,0 C 96 % 1024,6 hPa 0,0 l/m 0 min 0 min 0 W/m 0,0 km/h (0 Bft) 100,00 %
10.12.2019 05:20 2,6 C 1,1 C 0,0 C 96 % 1024,6 hPa 0,0 l/m 0 min 0 min 0 W/m 0,0 km/h (0 Bft) 100,00 %
10.12.2019 05:22 2,5 C 1,1 C -0,6 C 96 % 1024,6 hPa 0,0 l/m 0 min 0 min 0 W/m 0,0 km/h (0 Bft) 100,00 %
10.12.2019 05:24 2,4 C 1,1 C 0,0 C 96 % 1024,7 hPa 0,0 l/m 0 min 0 min 0 W/m 0,0 km/h (0 Bft) 100,00 %
10.12.2019 05:26 2,4 C 1,1 C 0,0 C 95 % 1024,7 hPa 0,0 l/m 0 min 0 min 0 W/m 0,0 km/h (0 Bft) 95,74 %
10.12.2019 05:28 2,3 C 1,1 C 0,0 C 96 % 1024,7 hPa 0,0 l/m 0 min 0 min 0 W/m 0,0 km/h (0 Bft) 97,87 %
10.12.2019 05:30 2,3 C 1,1 C 0,0 C 96 % 1024,7 hPa 0,0 l/m 0 min 0 min 0 W/m 0,0 km/h (0 Bft) 97,87 %
10.12.2019 05:32 2,3 C 1,1 C 0,0 C 96 % 1024,7 hPa 0,0 l/m 0 min 0 min 0 W/m 3,2 km/h (1 Bft) 100,00 %
10.12.2019 05:34 2,3 C 1,1 C 0,0 C 96 % 1024,7 hPa 0,0 l/m 0 min 0 min 0 W/m 3,2 km/h (1 Bft) 100,00 %
10.12.2019 05:36 2,2 C 1,1 C 0,6 C 96 % 1024,7 hPa 0,0 l/m 0 min 0 min 0 W/m 3,2 km/h (1 Bft) 95,65 %
10.12.2019 05:38 2,2 C 1,1 C 0,6 C 95 % 1024,6 hPa 0,0 l/m 0 min 0 min 0 W/m 0,0 km/h (0 Bft) 97,87 %
10.12.2019 05:40 2,2 C 1,1 C 0,6 C 95 % 1024,6 hPa 0,0 l/m 0 min 0 min 0 W/m 3,2 km/h (1 Bft) 97,87 %
10.12.2019 05:42 2,2 C 1,1 C 0,6 C 95 % 1024,7 hPa 0,0 l/m 0 min 0 min 0 W/m 0,0 km/h (0 Bft) 95,74 %
10.12.2019 05:44 2,1 C 0,6 C 0,0 C 95 % 1024,7 hPa 0,0 l/m 0 min 0 min 0 W/m 0,0 km/h (0 Bft) 95,74 %
10.12.2019 05:46 2,1 C 0,6 C 0,0 C 95 % 1024,7 hPa 0,0 l/m 0 min 0 min 0 W/m 6,4 km/h (2 Bft) 95,74 %
10.12.2019 05:48 2,1 C 1,1 C 0,6 C 95 % 1024,7 hPa 0,0 l/m 0 min 0 min 0 W/m 3,2 km/h (1 Bft) 97,83 %
10.12.2019 05:50 2,1 C 1,1 C 0,6 C 95 % 1024,7 hPa 0,0 l/m 0 min 0 min 0 W/m 3,2 km/h (1 Bft) 97,87 %
10.12.2019 05:52 2,1 C 1,1 C 0,6 C 95 % 1024,8 hPa 0,0 l/m 0 min 0 min 0 W/m 0,0 km/h (0 Bft) 95,74 %
10.12.2019 05:54 2,1 C 1,1 C 0,6 C 95 % 1024,8 hPa 0,0 l/m 0 min 0 min 0 W/m 0,0 km/h (0 Bft) 97,87 %
10.12.2019 05:56 2,1 C 1,1 C 0,6 C 96 % 1024,8 hPa 0,0 l/m 0 min 0 min 0 W/m 0,0 km/h (0 Bft) 97,87 %
10.12.2019 05:58 2,0 C 1,1 C 0,6 C 96 % 1024,8 hPa 0,0 l/m 0 min 0 min 0 W/m 0,0 km/h (0 Bft) 97,87 %
10.12.2019 06:00 2,0 C 1,1 C 0,6 C 96 % 1024,8 hPa 0,0 l/m 0 min 0 min 0 W/m 0,0 km/h (0 Bft) 97,83 %
10.12.2019 06:02 2,0 C 1,1 C 0,6 C 96 % 1024,8 hPa 0,0 l/m 0 min 0 min 0 W/m 3,2 km/h (1 Bft) 97,87 %
10.12.2019 06:04 2,0 C 1,1 C 0,6 C 96 % 1024,8 hPa 0,0 l/m 0 min 0 min 0 W/m 0,0 km/h (0 Bft) 95,74 %
10.12.2019 06:08 1,9 C 0,6 C 0,0 C 95 % 1024,9 hPa 0,0 l/m 0 min 0 min 0 W/m 0,0 km/h (0 Bft) 98,94 %
10.12.2019 06:10 1,9 C 0,6 C 0,0 C 95 % 1024,9 hPa 0,0 l/m 0 min 0 min 0 W/m 0,0 km/h (0 Bft) 97,83 %
10.12.2019 06:12 1,9 C 1,1 C 0,6 C 95 % 1024,9 hPa 0,0 l/m 0 min 0 min 0 W/m 0,0 km/h (0 Bft) 97,87 %
10.12.2019 06:14 1,9 C 1,1 C 0,6 C 96 % 1025,0 hPa 0,0 l/m 0 min 0 min 0 W/m 0,0 km/h (0 Bft) 100,00 %
10.12.2019 06:16 1,9 C 1,1 C 0,6 C 96 % 1025,1 hPa 0,0 l/m 0 min 0 min 0 W/m 0,0 km/h (0 Bft) 100,00 %
10.12.2019 06:18 1,9 C 1,1 C 0,6 C 96 % 1025,0 hPa 0,0 l/m 0 min 0 min 0 W/m 0,0 km/h (0 Bft) 100,00 %
10.12.2019 06:20 1,9 C 1,1 C 0,6 C 96 % 1025,0 hPa 0,0 l/m 0 min 0 min 0 W/m 0,0 km/h (0 Bft) 100,00 %
10.12.2019 06:22 1,8 C 1,1 C 0,6 C 96 % 1025,1 hPa 0,0 l/m 0 min 0 min 0 W/m 0,0 km/h (0 Bft) 100,00 %
10.12.2019 06:24 1,8 C 1,1 C 0,6 C 96 % 1025,2 hPa 0,0 l/m 0 min 0 min 0 W/m 0,0 km/h (0 Bft) 100,00 %
10.12.2019 06:26 1,8 C 1,1 C 0,6 C 96 % 1025,2 hPa 0,0 l/m 0 min 0 min 0 W/m 3,2 km/h (1 Bft) 97,87 %
10.12.2019 06:28 1,8 C 1,1 C 0,6 C 96 % 1025,1 hPa 0,0 l/m 0 min 0 min 0 W/m 3,2 km/h (1 Bft) 97,87 %
10.12.2019 06:30 1,8 C 1,1 C 0,6 C 96 % 1025,1 hPa 0,0 l/m 0 min 0 min 0 W/m 3,2 km/h (1 Bft) 95,74 %
10.12.2019 06:32 1,8 C 1,1 C 0,6 C 96 % 1025,2 hPa 0,0 l/m 0 min 0 min 0 W/m 0,0 km/h (0 Bft) 95,74 %
10.12.2019 06:34 1,8 C 1,1 C 0,6 C 96 % 1025,2 hPa 0,0 l/m 0 min 0 min 0 W/m 3,2 km/h (1 Bft) 97,83 %
10.12.2019 06:36 1,8 C 1,1 C 0,6 C 96 % 1025,2 hPa 0,0 l/m 0 min 0 min 0 W/m 3,2 km/h (1 Bft) 97,87 %
10.12.2019 06:38 1,8 C 1,1 C 0,6 C 96 % 1025,2 hPa 0,0 l/m 0 min 0 min 0 W/m 3,2 km/h (1 Bft) 97,87 %
10.12.2019 06:40 1,8 C 1,1 C 0,6 C 96 % 1025,2 hPa 0,0 l/m 0 min 0 min 0 W/m 0,0 km/h (0 Bft) 97,87 %
10.12.2019 06:42 1,8 C 1,1 C 0,6 C 96 % 1025,3 hPa 0,0 l/m 0 min 0 min 0 W/m 0,0 km/h (0 Bft) 97,87 %
10.12.2019 06:44 1,8 C 0,6 C 0,6 C 96 % 1025,2 hPa 0,0 l/m 0 min 0 min 0 W/m 0,0 km/h (0 Bft) 93,62 %
10.12.2019 06:46 1,8 C 0,6 C 0,6 C 96 % 1025,3 hPa 0,0 l/m 0 min 0 min 0 W/m 0,0 km/h (0 Bft) 97,83 %
10.12.2019 06:48 1,7 C 0,6 C 0,0 C 96 % 1025,3 hPa 0,0 l/m 0 min 0 min 0 W/m 0,0 km/h (0 Bft) 97,87 %
10.12.2019 06:50 1,7 C 0,6 C 0,0 C 96 % 1025,3 hPa 0,0 l/m 0 min 0 min 0 W/m 0,0 km/h (0 Bft) 97,87 %
10.12.2019 06:52 1,7 C 0,6 C 0,0 C 96 % 1025,3 hPa 0,0 l/m 0 min 0 min 0 W/m 0,0 km/h (0 Bft) 95,74 %
10.12.2019 06:54 1,7 C 0,6 C 0,0 C 96 % 1025,3 hPa 0,0 l/m 0 min 0 min 0 W/m 0,0 km/h (0 Bft) 97,87 %
10.12.2019 06:56 1,7 C 0,6 C 0,0 C 96 % 1025,3 hPa 0,0 l/m 0 min 0 min 0 W/m 0,0 km/h (0 Bft) 97,87 %
10.12.2019 06:58 1,7 C 0,6 C 0,0 C 96 % 1025,3 hPa 0,0 l/m 0 min 0 min 0 W/m 0,0 km/h (0 Bft) 97,83 %
10.12.2019 07:00 1,7 C 0,0 C -0,6 C 96 % 1025,3 hPa 0,0 l/m 0 min 0 min 0 W/m 0,0 km/h (0 Bft) 97,87 %
10.12.2019 07:02 1,7 C 0,0 C -0,6 C 96 % 1025,4 hPa 0,0 l/m 0 min 0 min 0 W/m 0,0 km/h (0 Bft) 93,62 %
10.12.2019 07:04 1,6 C 0,6 C -0,6 C 96 % 1025,4 hPa 0,0 l/m 0 min 0 min 0 W/m 0,0 km/h (0 Bft) 97,87 %
10.12.2019 07:06 1,6 C 0,6 C 0,0 C 96 % 1025,4 hPa 0,0 l/m 0 min 0 min 0 W/m 0,0 km/h (0 Bft) 97,87 %
10.12.2019 07:08 1,6 C 0,6 C -0,6 C 96 % 1025,3 hPa 0,0 l/m 0 min 0 min 0 W/m 0,0 km/h (0 Bft) 98,11 %
10.12.2019 07:10 1,6 C 0,6 C -0,6 C 96 % 1025,3 hPa 0,0 l/m 0 min 0 min 0 W/m 0,0 km/h (0 Bft) 97,87 %
10.12.2019 07:12 1,6 C 0,6 C -0,6 C 96 % 1025,2 hPa 0,0 l/m 0 min 0 min 0 W/m 0,0 km/h (0 Bft) 97,83 %
10.12.2019 07:14 1,6 C 0,6 C -0,6 C 96 % 1025,2 hPa 0,0 l/m 0 min 0 min 0 W/m 0,0 km/h (0 Bft) 95,74 %
10.12.2019 07:16 1,5 C 0,0 C -0,6 C 96 % 1025,2 hPa 0,0 l/m 0 min 0 min 0 W/m 0,0 km/h (0 Bft) 94,00 %
10.12.2019 07:18 1,5 C 0,6 C -0,6 C 96 % 1025,2 hPa 0,0 l/m 0 min 0 min 0 W/m 0,0 km/h (0 Bft) 95,74 %
10.12.2019 07:20 1,4 C 0,6 C -0,6 C 96 % 1025,2 hPa 0,0 l/m 0 min 0 min 0 W/m 0,0 km/h (0 Bft) 95,74 %
10.12.2019 07:22 1,4 C 0,6 C -0,6 C 96 % 1025,3 hPa 0,0 l/m 0 min 0 min 0 W/m 0,0 km/h (0 Bft) 93,48 %
10.12.2019 07:24 1,4 C 0,0 C -0,6 C 96 % 1025,3 hPa 0,0 l/m 0 min 0 min 0 W/m 0,0 km/h (0 Bft) 89,36 %
10.12.2019 07:26 1,4 C 0,0 C -0,6 C 96 % 1025,4 hPa 0,0 l/m 0 min 0 min 0 W/m 0,0 km/h (0 Bft) 91,49 %
10.12.2019 07:28 1,4 C 0,0 C -0,6 C 96 % 1025,4 hPa 0,0 l/m 0 min 0 min 0 W/m 0,0 km/h (0 Bft) 97,87 %
10.12.2019 07:30 1,4 C 0,0 C -0,6 C 96 % 1025,4 hPa 0,0 l/m 0 min 0 min 0 W/m 0,0 km/h (0 Bft) 95,74 %
10.12.2019 07:32 1,3 C 0,0 C -0,6 C 96 % 1025,4 hPa 0,0 l/m 0 min 0 min 0 W/m 0,0 km/h (0 Bft) 97,87 %
10.12.2019 07:34 1,3 C 0,0 C -0,6 C 96 % 1025,5 hPa 0,0 l/m 0 min 0 min 0 W/m 0,0 km/h (0 Bft) 97,83 %
10.12.2019 07:36 1,3 C 0,0 C -0,6 C 96 % 1025,5 hPa 0,0 l/m 0 min 0 min 0 W/m 0,0 km/h (0 Bft) 96,00 %
10.12.2019 07:38 1,3 C 0,0 C -0,6 C 96 % 1025,5 hPa 0,0 l/m 0 min 0 min 0 W/m 3,2 km/h (1 Bft) 95,74 %
10.12.2019 07:40 1,3 C 0,6 C -0,6 C 96 % 1025,5 hPa 0,0 l/m 0 min 0 min 0 W/m 3,2 km/h (1 Bft) 95,65 %
10.12.2019 07:42 1,3 C 0,6 C 0,0 C 96 % 1025,6 hPa 0,0 l/m 0 min 0 min 0 W/m 0,0 km/h (0 Bft) 97,87 %
10.12.2019 07:44 1,3 C 0,6 C 0,0 C 96 % 1025,6 hPa 0,0 l/m 0 min 0 min 0 W/m 0,0 km/h (0 Bft) 95,74 %
10.12.2019 07:46 1,3 C 0,6 C 0,0 C 96 % 1025,6 hPa 0,0 l/m 0 min 0 min 0 W/m 0,0 km/h (0 Bft) 94,29 %
10.12.2019 07:48 1,3 C 0,6 C 0,0 C 96 % 1025,6 hPa 0,0 l/m 0 min 0 min 0 W/m 3,2 km/h (1 Bft) 96,23 %
10.12.2019 07:50 1,3 C 0,6 C 0,0 C 96 % 1025,7 hPa 0,0 l/m 0 min 0 min 0 W/m 0,0 km/h (0 Bft) 93,62 %
10.12.2019 07:52 1,3 C 0,6 C 0,0 C 96 % 1025,7 hPa 0,0 l/m 0 min 0 min 0 W/m 3,2 km/h (1 Bft) 95,74 %
10.12.2019 07:54 1,3 C 0,6 C 0,0 C 96 % 1025,7 hPa 0,0 l/m 0 min 0 min 0 W/m 3,2 km/h (1 Bft) 95,74 %
10.12.2019 07:56 1,3 C 0,6 C 0,0 C 96 % 1025,8 hPa 0,0 l/m 0 min 0 min 0 W/m 0,0 km/h (0 Bft) 93,62 %
10.12.2019 07:58 1,3 C 0,6 C 0,0 C 96 % 1025,9 hPa 0,0 l/m 0 min 0 min 0 W/m 0,0 km/h (0 Bft) 95,92 %
10.12.2019 08:00 1,3 C 0,6 C 0,6 C 96 % 1025,8 hPa 0,0 l/m 0 min 0 min 0 W/m 3,2 km/h (1 Bft) 95,74 %
10.12.2019 08:02 1,3 C 0,6 C 0,6 C 96 % 1025,9 hPa 0,0 l/m 0 min 0 min 0 W/m 0,0 km/h (0 Bft) 97,87 %
10.12.2019 08:04 1,3 C 0,6 C 0,6 C 96 % 1026,0 hPa 0,0 l/m 0 min 0 min 0 W/m 3,2 km/h (1 Bft) 97,87 %
10.12.2019 08:06 1,3 C 0,6 C 0,6 C 96 % 1026,0 hPa 0,0 l/m 0 min 0 min 0 W/m 3,2 km/h (1 Bft) 95,74 %
10.12.2019 08:08 1,3 C 0,6 C 0,6 C 96 % 1026,1 hPa 0,0 l/m 0 min 0 min 0 W/m 3,2 km/h (1 Bft) 97,83 %
10.12.2019 08:10 1,4 C 0,6 C 0,6 C 96 % 1026,0 hPa 0,0 l/m 0 min 0 min 0 W/m 3,2 km/h (1 Bft) 97,87 %
10.12.2019 08:12 1,4 C 0,6 C 0,6 C 96 % 1026,1 hPa 0,0 l/m 0 min 0 min 0 W/m 3,2 km/h (1 Bft) 97,87 %
10.12.2019 08:14 1,4 C 0,6 C 0,0 C 96 % 1026,1 hPa 0,0 l/m 0 min 0 min 0 W/m 3,2 km/h (1 Bft) 97,87 %
10.12.2019 08:16 1,4 C 0,6 C 0,6 C 96 % 1026,1 hPa 0,0 l/m 0 min 0 min 0 W/m 9,7 km/h (2 Bft) 97,96 %
10.12.2019 08:18 1,4 C 0,6 C 0,6 C 96 % 1026,2 hPa 0,0 l/m 0 min 0 min 0 W/m 9,7 km/h (2 Bft) 97,14 %
10.12.2019 08:20 1,4 C 1,1 C 0,6 C 97 % 1026,2 hPa 0,0 l/m 0 min 0 min 0 W/m 6,4 km/h (2 Bft) 95,74 %
10.12.2019 08:22 1,5 C 1,1 C 0,6 C 97 % 1026,2 hPa 0,0 l/m 0 min 0 min 0 W/m 16,1 km/h (3 Bft) 97,87 %
10.12.2019 08:24 1,6 C 1,1 C 0,6 C 97 % 1026,2 hPa 0,0 l/m 0 min 0 min 5 W/m 16,1 km/h (3 Bft) 97,87 %
10.12.2019 08:26 1,6 C 1,1 C 0,6 C 97 % 1026,2 hPa 0,0 l/m 0 min 0 min 5 W/m 12,9 km/h (3 Bft) 97,87 %
10.12.2019 08:28 1,6 C 1,1 C 0,6 C 97 % 1026,2 hPa 0,0 l/m 0 min 0 min 6 W/m 6,4 km/h (2 Bft) 97,87 %
10.12.2019 08:30 1,6 C 1,1 C 0,6 C 97 % 1026,3 hPa 0,0 l/m 0 min 0 min 7 W/m 6,4 km/h (2 Bft) 100,00 %
10.12.2019 08:32 1,7 C 1,1 C 0,6 C 97 % 1026,3 hPa 0,0 l/m 0 min 0 min 7 W/m 6,4 km/h (2 Bft) 100,00 %
10.12.2019 08:34 1,7 C 1,1 C 0,6 C 97 % 1026,4 hPa 0,0 l/m 0 min 0 min 7 W/m 16,1 km/h (3 Bft) 100,00 %
10.12.2019 08:36 1,7 C 1,1 C 0,6 C 97 % 1026,3 hPa 0,0 l/m 0 min 0 min 9 W/m 12,9 km/h (3 Bft) 100,00 %
10.12.2019 08:38 1,7 C 1,1 C 0,6 C 97 % 1026,3 hPa 0,0 l/m 0 min 0 min 10 W/m 6,4 km/h (2 Bft) 100,00 %
10.12.2019 08:40 1,8 C 1,1 C 0,6 C 97 % 1026,3 hPa 0,0 l/m 0 min 0 min 11 W/m 6,4 km/h (2 Bft) 100,00 %
10.12.2019 08:42 1,8 C 1,1 C 0,6 C 97 % 1026,4 hPa 0,0 l/m 0 min 0 min 12 W/m 6,4 km/h (2 Bft) 100,00 %
10.12.2019 08:44 1,8 C 1,1 C 0,6 C 97 % 1026,3 hPa 0,0 l/m 0 min 0 min 14 W/m 6,4 km/h (2 Bft) 97,83 %
10.12.2019 08:46 1,8 C 1,1 C 0,6 C 97 % 1026,3 hPa 0,0 l/m 0 min 0 min 15 W/m 6,4 km/h (2 Bft) 97,87 %
10.12.2019 08:48 1,8 C 1,1 C 1,1 C 97 % 1026,3 hPa 0,0 l/m 0 min 0 min 16 W/m 12,9 km/h (3 Bft) 100,00 %
10.12.2019 08:50 1,8 C 1,7 C 1,1 C 97 % 1026,4 hPa 0,0 l/m 0 min 0 min 18 W/m 12,9 km/h (3 Bft) 97,87 %
10.12.2019 08:52 1,8 C 1,7 C 1,1 C 97 % 1026,4 hPa 0,0 l/m 0 min 0 min 18 W/m 16,1 km/h (3 Bft) 100,00 %
10.12.2019 08:54 1,8 C 1,7 C 1,1 C 97 % 1026,4 hPa 0,0 l/m 0 min 0 min 20 W/m 6,4 km/h (2 Bft) 100,00 %
10.12.2019 08:56 1,9 C 1,7 C 1,1 C 97 % 1026,5 hPa 0,0 l/m 0 min 0 min 22 W/m 3,2 km/h (1 Bft) 100,00 %
10.12.2019 08:58 1,9 C 1,7 C 1,1 C 97 % 1026,5 hPa 0,0 l/m 0 min 0 min 23 W/m 16,1 km/h (3 Bft) 100,00 %
10.12.2019 09:00 1,9 C 1,7 C 1,1 C 97 % 1026,5 hPa 0,0 l/m 0 min 0 min 25 W/m 6,4 km/h (2 Bft) 100,00 %
10.12.2019 09:02 1,9 C 1,7 C 1,1 C 97 % 1026,4 hPa 0,0 l/m 0 min 0 min 26 W/m 16,1 km/h (3 Bft) 100,00 %
10.12.2019 09:04 1,9 C 1,7 C 1,1 C 97 % 1026,4 hPa 0,0 l/m 0 min 0 min 28 W/m 16,1 km/h (3 Bft) 100,00 %
10.12.2019 09:06 1,9 C 1,7 C 1,1 C 97 % 1026,4 hPa 0,0 l/m 0 min 0 min 29 W/m 6,4 km/h (2 Bft) 100,00 %
10.12.2019 09:08 2,0 C 1,7 C 1,1 C 97 % 1026,4 hPa 0,0 l/m 0 min 0 min 31 W/m 12,9 km/h (3 Bft) 100,00 %
10.12.2019 09:10 2,0 C 1,7 C 1,1 C 97 % 1026,4 hPa 0,0 l/m 0 min 0 min 33 W/m 16,1 km/h (3 Bft) 100,00 %
10.12.2019 09:12 2,0 C 1,7 C 1,1 C 97 % 1026,5 hPa 0,0 l/m 0 min 0 min 34 W/m 16,1 km/h (3 Bft) 98,00 %
10.12.2019 09:14 2,1 C 2,2 C 1,1 C 97 % 1026,5 hPa 0,0 l/m 0 min 0 min 37 W/m 16,1 km/h (3 Bft) 100,00 %
10.12.2019 09:16 2,1 C 2,2 C 1,1 C 97 % 1026,4 hPa 0,0 l/m 0 min 0 min 39 W/m 12,9 km/h (3 Bft) 97,96 %
10.12.2019 09:18 2,1 C 2,2 C 1,1 C 97 % 1026,3 hPa 0,0 l/m 0 min 0 min 40 W/m 6,4 km/h (2 Bft) 100,00 %
10.12.2019 09:20 2,1 C 2,2 C 1,1 C 98 % 1026,4 hPa 0,0 l/m 0 min 0 min 42 W/m 12,9 km/h (3 Bft) 100,00 %
10.12.2019 09:22 2,1 C 2,2 C 1,1 C 98 % 1026,3 hPa 0,0 l/m 0 min 0 min 42 W/m 12,9 km/h (3 Bft) 100,00 %
10.12.2019 09:24 2,2 C 2,2 C 1,1 C 98 % 1026,4 hPa 0,0 l/m 0 min 0 min 45 W/m 12,9 km/h (3 Bft) 100,00 %
10.12.2019 09:26 2,2 C 2,2 C 1,7 C 98 % 1026,3 hPa 0,0 l/m 0 min 0 min 48 W/m 6,4 km/h (2 Bft) 100,00 %
10.12.2019 09:28 2,2 C 2,2 C 1,7 C 98 % 1026,3 hPa 0,0 l/m 0 min 0 min 50 W/m 19,3 km/h (3 Bft) 97,87 %
10.12.2019 09:30 2,2 C 2,2 C 1,7 C 98 % 1026,4 hPa 0,0 l/m 0 min 0 min 58 W/m 12,9 km/h (3 Bft) 100,00 %
10.12.2019 09:32 2,3 C 2,8 C 1,7 C 98 % 1026,3 hPa 0,0 l/m 0 min 0 min 62 W/m 12,9 km/h (3 Bft) 100,00 %
10.12.2019 09:34 2,3 C 2,8 C 1,7 C 98 % 1026,3 hPa 0,0 l/m 0 min 0 min 57 W/m 12,9 km/h (3 Bft) 100,00 %
10.12.2019 09:36 2,3 C 2,8 C 1,7 C 98 % 1026,4 hPa 0,0 l/m 0 min 0 min 60 W/m 12,9 km/h (3 Bft) 100,00 %
10.12.2019 09:38 2,4 C 2,8 C 1,7 C 98 % 1026,4 hPa 0,0 l/m 0 min 0 min 55 W/m 12,9 km/h (3 Bft) 100,00 %
10.12.2019 09:40 2,4 C 2,8 C 1,7 C 98 % 1026,4 hPa 0,0 l/m 0 min 0 min 45 W/m 12,9 km/h (3 Bft) 100,00 %
10.12.2019 09:42 2,4 C 2,8 C 1,7 C 98 % 1026,5 hPa 0,0 l/m 0 min 0 min 40 W/m 19,3 km/h (3 Bft) 100,00 %
10.12.2019 09:44 2,5 C 2,8 C 1,7 C 98 % 1026,5 hPa 0,0 l/m 0 min 0 min 40 W/m 19,3 km/h (3 Bft) 100,00 %
10.12.2019 09:46 2,5 C 2,8 C 1,7 C 98 % 1026,5 hPa 0,0 l/m 0 min 0 min 40 W/m 16,1 km/h (3 Bft) 97,87 %
10.12.2019 09:48 2,5 C 2,8 C 1,7 C 98 % 1026,5 hPa 0,0 l/m 0 min 0 min 40 W/m 19,3 km/h (3 Bft) 97,87 %
10.12.2019 09:50 2,6 C 2,8 C 1,7 C 98 % 1026,5 hPa 0,0 l/m 0 min 0 min 44 W/m 6,4 km/h (2 Bft) 97,87 %
10.12.2019 09:52 2,6 C 2,8 C 1,7 C 98 % 1026,5 hPa 0,0 l/m 0 min 0 min 48 W/m 12,9 km/h (3 Bft) 95,74 %
10.12.2019 09:54 2,6 C 2,8 C 1,7 C 98 % 1026,6 hPa 0,0 l/m 0 min 0 min 53 W/m 12,9 km/h (3 Bft) 95,65 %
10.12.2019 09:56 2,6 C 2,8 C 1,7 C 98 % 1026,7 hPa 0,0 l/m 0 min 0 min 66 W/m 3,2 km/h (1 Bft) 95,74 %
10.12.2019 09:58 2,6 C 2,8 C 1,7 C 98 % 1026,8 hPa 0,0 l/m 0 min 0 min 70 W/m 12,9 km/h (3 Bft) 95,74 %
10.12.2019 10:00 2,6 C 2,8 C 1,7 C 98 % 1026,7 hPa 0,0 l/m 0 min 0 min 69 W/m 12,9 km/h (3 Bft) 93,62 %
10.12.2019 10:02 2,6 C 2,8 C 1,7 C 98 % 1026,7 hPa 0,0 l/m 0 min 0 min 74 W/m 12,9 km/h (3 Bft) 95,74 %
10.12.2019 10:04 2,6 C 2,8 C 1,7 C 98 % 1026,7 hPa 0,0 l/m 0 min 0 min 78 W/m 12,9 km/h (3 Bft) 93,62 %
10.12.2019 10:06 2,6 C 3,3 C 2,2 C 98 % 1026,7 hPa 0,0 l/m 0 min 0 min 85 W/m 12,9 km/h (3 Bft) 93,48 %
10.12.2019 10:08 2,6 C 3,3 C 2,2 C 98 % 1026,6 hPa 0,0 l/m 2 min 0 min 124 W/m 6,4 km/h (2 Bft) 94,00 %
10.12.2019 10:10 2,7 C 3,9 C 2,2 C 98 % 1026,6 hPa 0,0 l/m 2 min 0 min 152 W/m 6,4 km/h (2 Bft) 95,74 %
10.12.2019 10:12 2,7 C 3,9 C 2,2 C 98 % 1026,6 hPa 0,0 l/m 2 min 0 min 102 W/m 12,9 km/h (3 Bft) 95,74 %
10.12.2019 10:14 2,7 C 3,9 C 2,2 C 98 % 1026,7 hPa 0,0 l/m 0 min 0 min 100 W/m 3,2 km/h (1 Bft) 91,84 %
10.12.2019 10:16 2,8 C 4,4 C 2,2 C 98 % 1026,6 hPa 0,0 l/m 2 min 0 min 124 W/m 12,9 km/h (3 Bft) 97,14 %
10.12.2019 10:18 2,8 C 3,9 C 2,2 C 98 % 1026,6 hPa 0,0 l/m 0 min 0 min 97 W/m 16,1 km/h (3 Bft) 96,23 %
10.12.2019 10:20 2,8 C 3,9 C 2,2 C 98 % 1026,6 hPa 0,0 l/m 0 min 0 min 89 W/m 6,4 km/h (2 Bft) 93,62 %
10.12.2019 10:22 2,9 C 3,9 C 2,2 C 98 % 1026,6 hPa 0,0 l/m 0 min 0 min 106 W/m 16,1 km/h (3 Bft) 93,62 %
10.12.2019 10:24 2,9 C 4,4 C 2,8 C 98 % 1026,6 hPa 0,0 l/m 2 min 0 min 138 W/m 19,3 km/h (3 Bft) 93,62 %
10.12.2019 10:26 3,0 C 5,6 C 2,8 C 98 % 1026,6 hPa 0,0 l/m 2 min 0 min 174 W/m 16,1 km/h (3 Bft) 94,00 %
10.12.2019 10:28 3,1 C 6,1 C 2,8 C 98 % 1026,5 hPa 0,0 l/m 2 min 0 min 166 W/m 16,1 km/h (3 Bft) 95,65 %
10.12.2019 10:30 3,1 C 5,6 C 2,8 C 98 % 1026,6 hPa 0,0 l/m 2 min 0 min 162 W/m 16,1 km/h (3 Bft) 94,00 %
10.12.2019 10:32 3,2 C 5,6 C 2,8 C 98 % 1026,6 hPa 0,0 l/m 2 min 0 min 181 W/m 19,3 km/h (3 Bft) 94,29 %
10.12.2019 10:34 3,3 C 5,6 C 2,8 C 98 % 1026,5 hPa 0,0 l/m 2 min 0 min 158 W/m 12,9 km/h (3 Bft) 95,74 %
10.12.2019 10:36 3,3 C 5,0 C 2,8 C 98 % 1026,6 hPa 0,0 l/m 2 min 0 min 121 W/m 16,1 km/h (3 Bft) 95,65 %
10.12.2019 10:38 3,4 C 5,0 C 2,8 C 98 % 1026,5 hPa 0,0 l/m 2 min 0 min 119 W/m 12,9 km/h (3 Bft) 95,74 %
10.12.2019 10:40 3,4 C 5,0 C 3,3 C 98 % 1026,7 hPa 0,0 l/m 2 min 0 min 135 W/m 12,9 km/h (3 Bft) 96,23 %
10.12.2019 10:42 3,5 C 5,6 C 3,3 C 98 % 1026,6 hPa 0,0 l/m 2 min 0 min 163 W/m 12,9 km/h (3 Bft) 97,87 %
10.12.2019 10:44 3,6 C 5,0 C 3,3 C 98 % 1026,5 hPa 0,0 l/m 2 min 0 min 141 W/m 12,9 km/h (3 Bft) 95,74 %
10.12.2019 10:46 3,6 C 5,0 C 3,3 C 98 % 1026,5 hPa 0,0 l/m 0 min 0 min 108 W/m 12,9 km/h (3 Bft) 97,87 %
10.12.2019 10:48 3,7 C 5,0 C 3,3 C 98 % 1026,5 hPa 0,0 l/m 0 min 0 min 104 W/m 12,9 km/h (3 Bft) 95,74 %
10.12.2019 10:50 3,7 C 4,4 C 3,3 C 98 % 1026,5 hPa 0,0 l/m 0 min 0 min 93 W/m 12,9 km/h (3 Bft) 97,87 %
10.12.2019 10:52 3,7 C 4,4 C 3,3 C 98 % 1026,5 hPa 0,0 l/m 0 min 0 min 76 W/m 22,5 km/h (4 Bft) 97,96 %
10.12.2019 10:54 3,8 C 4,4 C 3,3 C 98 % 1026,5 hPa 0,0 l/m 0 min 0 min 89 W/m 19,3 km/h (3 Bft) 93,62 %
10.12.2019 10:56 3,8 C 5,0 C 3,3 C 98 % 1026,4 hPa 0,0 l/m 2 min 0 min 151 W/m 19,3 km/h (3 Bft) 97,87 %
10.12.2019 10:58 3,8 C 4,4 C 3,3 C 98 % 1026,5 hPa 0,0 l/m 0 min 0 min 91 W/m 12,9 km/h (3 Bft) 97,87 %
10.12.2019 11:00 3,8 C 4,4 C 3,3 C 98 % 1026,6 hPa 0,0 l/m 0 min 0 min 68 W/m 16,1 km/h (3 Bft) 95,74 %
10.12.2019 11:02 3,8 C 4,4 C 3,3 C 98 % 1026,5 hPa 0,0 l/m 0 min 0 min 62 W/m 19,3 km/h (3 Bft) 97,83 %
10.12.2019 11:04 3,9 C 4,4 C 3,3 C 98 % 1026,5 hPa 0,0 l/m 0 min 0 min 65 W/m 6,4 km/h (2 Bft) 97,87 %
10.12.2019 11:06 3,9 C 4,4 C 3,3 C 97 % 1026,5 hPa 0,0 l/m 0 min 0 min 79 W/m 12,9 km/h (3 Bft) 97,87 %
10.12.2019 11:08 3,9 C 5,0 C 3,3 C 97 % 1026,4 hPa 0,0 l/m 2 min 0 min 138 W/m 16,1 km/h (3 Bft) 89,36 %
10.12.2019 11:10 3,9 C 6,1 C 3,3 C 97 % 1026,3 hPa 0,0 l/m 2 min 0 min 185 W/m 12,9 km/h (3 Bft) 61,70 %
10.12.2019 11:12 4,1 C 6,7 C 3,3 C 97 % 1026,2 hPa 0,0 l/m 2 min 0 min 218 W/m 6,4 km/h (2 Bft) 90,70 %
10.12.2019 11:14 4,1 C 6,1 C 3,3 C 97 % 1026,3 hPa 0,0 l/m 2 min 0 min 151 W/m 6,4 km/h (2 Bft) 97,83 %
10.12.2019 11:16 4,1 C 6,1 C 3,3 C 97 % 1026,3 hPa 0,0 l/m 2 min 0 min 143 W/m 12,9 km/h (3 Bft) 97,87 %
10.12.2019 11:18 4,2 C 6,1 C 3,3 C 97 % 1026,3 hPa 0,0 l/m 0 min 0 min 136 W/m 16,1 km/h (3 Bft) 95,74 %
10.12.2019 11:20 4,3 C 6,7 C 3,3 C 97 % 1026,3 hPa 0,0 l/m 2 min 0 min 205 W/m 22,5 km/h (4 Bft) 97,87 %
10.12.2019 11:22 4,3 C 6,7 C 3,3 C 97 % 1026,2 hPa 0,0 l/m 2 min 0 min 189 W/m 16,1 km/h (3 Bft) 97,96 %
10.12.2019 11:24 4,3 C 6,7 C 3,3 C 97 % 1026,2 hPa 0,0 l/m 2 min 0 min 146 W/m 16,1 km/h (3 Bft) 97,87 %
10.12.2019 11:26 4,4 C 6,1 C 3,3 C 96 % 1026,2 hPa 0,0 l/m 0 min 0 min 116 W/m 19,3 km/h (3 Bft) 97,14 %
10.12.2019 11:28 4,4 C 5,0 C 3,3 C 96 % 1026,2 hPa 0,0 l/m 0 min 0 min 58 W/m 16,1 km/h (3 Bft) 93,62 %
10.12.2019 11:30 4,4 C 5,6 C 3,3 C 96 % 1026,2 hPa 0,0 l/m 0 min 0 min 69 W/m 16,1 km/h (3 Bft) 98,11 %
10.12.2019 11:32 4,5 C 6,7 C 3,3 C 96 % 1026,2 hPa 0,0 l/m 2 min 0 min 188 W/m 12,9 km/h (3 Bft) 98,00 %
10.12.2019 11:34 4,6 C 7,8 C 3,9 C 96 % 1026,1 hPa 0,0 l/m 2 min 0 min 252 W/m 16,1 km/h (3 Bft) 97,87 %
10.12.2019 11:36 4,6 C 7,8 C 3,9 C 96 % 1026,1 hPa 0,0 l/m 2 min 0 min 252 W/m 16,1 km/h (3 Bft) 100,00 %
10.12.2019 11:38 4,7 C 8,3 C 3,9 C 95 % 1026,1 hPa 0,0 l/m 2 min 0 min 243 W/m 19,3 km/h (3 Bft) 100,00 %
10.12.2019 11:40 4,7 C 8,3 C 3,9 C 95 % 1026,2 hPa 0,0 l/m 2 min 0 min 235 W/m 19,3 km/h (3 Bft) 100,00 %
10.12.2019 11:42 4,8 C 7,2 C 3,9 C 95 % 1026,2 hPa 0,0 l/m 2 min 0 min 228 W/m 19,3 km/h (3 Bft) 97,87 %
10.12.2019 11:44 4,8 C 7,8 C 3,9 C 95 % 1026,2 hPa 0,0 l/m 2 min 0 min 282 W/m 25,7 km/h (4 Bft) 100,00 %
10.12.2019 11:46 4,9 C 7,8 C 3,9 C 95 % 1026,2 hPa 0,0 l/m 2 min 0 min 281 W/m 16,1 km/h (3 Bft) 100,00 %
10.12.2019 11:48 5,0 C 7,2 C 3,9 C 95 % 1026,2 hPa 0,0 l/m 2 min 0 min 186 W/m 22,5 km/h (4 Bft) 100,00 %
10.12.2019 11:50 5,0 C 6,1 C 3,9 C 94 % 1026,2 hPa 0,0 l/m 0 min 0 min 143 W/m 25,7 km/h (4 Bft) 100,00 %
10.12.2019 11:52 5,0 C 6,1 C 3,9 C 94 % 1026,1 hPa 0,0 l/m 0 min 0 min 139 W/m 16,1 km/h (3 Bft) 100,00 %
10.12.2019 11:54 5,0 C 6,1 C 3,9 C 94 % 1026,1 hPa 0,0 l/m 2 min 0 min 218 W/m 25,7 km/h (4 Bft) 100,00 %
10.12.2019 11:56 5,0 C 6,1 C 3,9 C 94 % 1026,0 hPa 0,0 l/m 2 min 0 min 166 W/m 22,5 km/h (4 Bft) 100,00 %
10.12.2019 11:58 5,0 C 5,0 C 3,9 C 93 % 1026,0 hPa 0,0 l/m 0 min 0 min 79 W/m 25,7 km/h (4 Bft) 97,87 %
10.12.2019 12:00 5,0 C 5,6 C 3,9 C 93 % 1026,0 hPa 0,0 l/m 0 min 0 min 116 W/m 25,7 km/h (4 Bft) 97,96 %
10.12.2019 12:02 5,0 C 6,7 C 3,9 C 93 % 1025,9 hPa 0,0 l/m 2 min 0 min 259 W/m 16,1 km/h (3 Bft) 97,87 %
10.12.2019 12:04 5,0 C 6,7 C 3,9 C 93 % 1025,9 hPa 0,0 l/m 2 min 0 min 201 W/m 22,5 km/h (4 Bft) 98,00 %
10.12.2019 12:06 5,1 C 6,7 C 3,9 C 92 % 1026,0 hPa 0,0 l/m 2 min 0 min 173 W/m 19,3 km/h (3 Bft) 97,83 %
10.12.2019 12:08 5,1 C 7,8 C 3,9 C 92 % 1025,9 hPa 0,0 l/m 2 min 0 min 238 W/m 19,3 km/h (3 Bft) 95,74 %
10.12.2019 12:10 5,1 C 8,3 C 3,9 C 92 % 1025,9 hPa 0,0 l/m 2 min 0 min 271 W/m 16,1 km/h (3 Bft) 100,00 %
10.12.2019 12:12 5,2 C 8,3 C 3,9 C 92 % 1025,8 hPa 0,0 l/m 2 min 0 min 269 W/m 16,1 km/h (3 Bft) 95,74 %
10.12.2019 12:14 5,2 C 8,3 C 4,4 C 92 % 1025,7 hPa 0,0 l/m 2 min 0 min 270 W/m 19,3 km/h (3 Bft) 95,74 %
10.12.2019 12:16 5,3 C 8,9 C 4,4 C 92 % 1025,6 hPa 0,0 l/m 2 min 0 min 270 W/m 12,9 km/h (3 Bft) 95,74 %
10.12.2019 12:18 5,4 C 8,9 C 4,4 C 92 % 1025,5 hPa 0,0 l/m 2 min 0 min 272 W/m 16,1 km/h (3 Bft) 95,74 %
10.12.2019 12:20 5,4 C 9,4 C 4,4 C 92 % 1025,5 hPa 0,0 l/m 2 min 0 min 272 W/m 12,9 km/h (3 Bft) 96,23 %
10.12.2019 12:22 5,6 C 10,0 C 5,0 C 92 % 1025,5 hPa 0,0 l/m 2 min 0 min 274 W/m 16,1 km/h (3 Bft) 95,74 %
10.12.2019 12:24 5,6 C 10,0 C 5,0 C 92 % 1025,5 hPa 0,0 l/m 2 min 0 min 275 W/m 12,9 km/h (3 Bft) 97,87 %
10.12.2019 12:26 5,7 C 10,0 C 4,4 C 91 % 1025,5 hPa 0,0 l/m 2 min 0 min 277 W/m 12,9 km/h (3 Bft) 93,48 %
10.12.2019 12:28 5,8 C 9,4 C 4,4 C 91 % 1025,4 hPa 0,0 l/m 2 min 0 min 276 W/m 22,5 km/h (4 Bft) 97,87 %
10.12.2019 12:30 5,8 C 9,4 C 4,4 C 91 % 1025,4 hPa 0,0 l/m 2 min 0 min 278 W/m 22,5 km/h (4 Bft) 97,87 %
10.12.2019 12:32 5,9 C 9,4 C 4,4 C 90 % 1025,3 hPa 0,0 l/m 2 min 0 min 276 W/m 25,7 km/h (4 Bft) 94,00 %
10.12.2019 12:34 5,9 C 8,9 C 4,4 C 90 % 1025,4 hPa 0,0 l/m 2 min 0 min 274 W/m 25,7 km/h (4 Bft) 97,87 %
10.12.2019 12:36 6,0 C 9,4 C 4,4 C 89 % 1025,3 hPa 0,0 l/m 2 min 0 min 276 W/m 25,7 km/h (4 Bft) 95,65 %
10.12.2019 12:38 6,1 C 10,0 C 5,0 C 89 % 1025,3 hPa 0,0 l/m 2 min 0 min 276 W/m 19,3 km/h (3 Bft) 97,87 %
10.12.2019 12:40 6,1 C 9,4 C 5,0 C 89 % 1025,4 hPa 0,0 l/m 2 min 0 min 274 W/m 25,7 km/h (4 Bft) 98,00 %
10.12.2019 12:42 6,2 C 9,4 C 5,0 C 88 % 1025,2 hPa 0,0 l/m 2 min 0 min 274 W/m 19,3 km/h (3 Bft) 97,83 %
10.12.2019 12:44 6,2 C 8,9 C 5,0 C 88 % 1025,3 hPa 0,0 l/m 2 min 0 min 272 W/m 25,7 km/h (4 Bft) 97,87 %
10.12.2019 12:46 6,3 C 8,9 C 5,0 C 87 % 1025,4 hPa 0,0 l/m 2 min 0 min 272 W/m 19,3 km/h (3 Bft) 100,00 %
10.12.2019 12:48 6,3 C 8,9 C 5,0 C 87 % 1025,3 hPa 0,0 l/m 2 min 0 min 272 W/m 22,5 km/h (4 Bft) 100,00 %
10.12.2019 12:50 6,4 C 8,9 C 5,0 C 87 % 1025,3 hPa 0,0 l/m 2 min 0 min 272 W/m 19,3 km/h (3 Bft) 100,00 %
10.12.2019 12:52 6,4 C 10,0 C 5,0 C 87 % 1025,2 hPa 0,0 l/m 2 min 0 min 273 W/m 16,1 km/h (3 Bft) 97,87 %
10.12.2019 12:54 6,5 C 10,0 C 5,0 C 86 % 1025,1 hPa 0,0 l/m 2 min 0 min 273 W/m 19,3 km/h (3 Bft) 100,00 %
10.12.2019 12:56 6,6 C 10,0 C 5,0 C 86 % 1025,2 hPa 0,0 l/m 2 min 0 min 273 W/m 19,3 km/h (3 Bft) 100,00 %
10.12.2019 12:58 6,6 C 10,0 C 5,6 C 86 % 1025,1 hPa 0,0 l/m 2 min 0 min 275 W/m 22,5 km/h (4 Bft) 100,00 %
10.12.2019 13:00 6,7 C 10,0 C 5,6 C 85 % 1025,1 hPa 0,0 l/m 2 min 0 min 275 W/m 22,5 km/h (4 Bft) 100,00 %
10.12.2019 13:02 6,7 C 9,4 C 5,6 C 85 % 1025,1 hPa 0,0 l/m 2 min 0 min 283 W/m 32,2 km/h (5 Bft) 100,00 %
10.12.2019 13:04 6,8 C 8,9 C 5,6 C 84 % 1025,1 hPa 0,0 l/m 2 min 0 min 213 W/m 25,7 km/h (4 Bft) 100,00 %
10.12.2019 13:06 6,8 C 8,9 C 5,6 C 84 % 1025,0 hPa 0,0 l/m 2 min 0 min 262 W/m 25,7 km/h (4 Bft) 100,00 %
10.12.2019 13:08 6,8 C 9,4 C 5,6 C 83 % 1025,1 hPa 0,0 l/m 2 min 0 min 270 W/m 22,5 km/h (4 Bft) 100,00 %
10.12.2019 13:10 6,9 C 8,9 C 5,6 C 83 % 1025,0 hPa 0,0 l/m 2 min 0 min 269 W/m 38,6 km/h (5 Bft) 100,00 %
10.12.2019 13:12 6,9 C 9,4 C 5,6 C 83 % 1024,9 hPa 0,0 l/m 2 min 0 min 265 W/m 22,5 km/h (4 Bft) 100,00 %
10.12.2019 13:14 6,9 C 9,4 C 5,6 C 82 % 1024,8 hPa 0,0 l/m 2 min 0 min 264 W/m 29,0 km/h (5 Bft) 100,00 %
10.12.2019 13:16 6,9 C 9,4 C 5,6 C 82 % 1024,8 hPa 0,0 l/m 2 min 0 min 263 W/m 25,7 km/h (4 Bft) 100,00 %
10.12.2019 13:18 7,0 C 10,0 C 5,6 C 82 % 1024,7 hPa 0,0 l/m 2 min 0 min 262 W/m 22,5 km/h (4 Bft) 100,00 %
10.12.2019 13:20 7,0 C 9,4 C 5,6 C 82 % 1024,7 hPa 0,0 l/m 2 min 0 min 262 W/m 19,3 km/h (3 Bft) 100,00 %
10.12.2019 13:22 7,1 C 9,4 C 5,6 C 82 % 1024,7 hPa 0,0 l/m 2 min 0 min 257 W/m 32,2 km/h (5 Bft) 100,00 %
10.12.2019 13:24 7,1 C 9,4 C 5,6 C 82 % 1024,6 hPa 0,0 l/m 2 min 0 min 251 W/m 29,0 km/h (5 Bft) 100,00 %
10.12.2019 13:26 7,1 C 9,4 C 5,6 C 81 % 1024,6 hPa 0,0 l/m 2 min 0 min 257 W/m 22,5 km/h (4 Bft) 97,87 %
10.12.2019 13:28 7,1 C 9,4 C 5,6 C 81 % 1024,6 hPa 0,0 l/m 2 min 0 min 242 W/m 16,1 km/h (3 Bft) 97,87 %
10.12.2019 13:30 7,1 C 9,4 C 5,6 C 81 % 1024,4 hPa 0,0 l/m 2 min 0 min 255 W/m 19,3 km/h (3 Bft) 100,00 %
10.12.2019 13:32 7,1 C 8,9 C 5,6 C 81 % 1024,4 hPa 0,0 l/m 2 min 0 min 244 W/m 22,5 km/h (4 Bft) 100,00 %
10.12.2019 13:34 7,1 C 9,4 C 5,6 C 81 % 1024,4 hPa 0,0 l/m 2 min 0 min 242 W/m 16,1 km/h (3 Bft) 97,83 %
10.12.2019 13:36 7,1 C 10,0 C 5,6 C 81 % 1024,4 hPa 0,0 l/m 2 min 0 min 243 W/m 19,3 km/h (3 Bft) 100,00 %
10.12.2019 13:38 7,1 C 10,0 C 5,6 C 81 % 1024,2 hPa 0,0 l/m 2 min 0 min 246 W/m 12,9 km/h (3 Bft) 100,00 %
10.12.2019 13:40 7,1 C 10,0 C 5,6 C 81 % 1024,2 hPa 0,0 l/m 2 min 0 min 245 W/m 19,3 km/h (3 Bft) 97,87 %
10.12.2019 13:42 7,2 C 10,0 C 5,6 C 81 % 1024,2 hPa 0,0 l/m 2 min 0 min 246 W/m 19,3 km/h (3 Bft) 100,00 %
10.12.2019 13:44 7,1 C 8,9 C 5,6 C 80 % 1024,1 hPa 0,0 l/m 2 min 0 min 246 W/m 32,2 km/h (5 Bft) 100,00 %
10.12.2019 13:46 7,1 C 8,9 C 5,6 C 80 % 1024,1 hPa 0,0 l/m 2 min 0 min 244 W/m 22,5 km/h (4 Bft) 98,00 %
10.12.2019 13:48 7,1 C 9,4 C 5,6 C 80 % 1024,1 hPa 0,0 l/m 2 min 0 min 244 W/m 22,5 km/h (4 Bft) 95,74 %
10.12.2019 13:50 7,1 C 9,4 C 5,6 C 80 % 1024,0 hPa 0,0 l/m 2 min 0 min 236 W/m 22,5 km/h (4 Bft) 100,00 %
10.12.2019 13:52 7,1 C 9,4 C 5,6 C 80 % 1024,1 hPa 0,0 l/m 2 min 0 min 240 W/m 19,3 km/h (3 Bft) 97,87 %
10.12.2019 13:54 7,1 C 8,9 C 5,6 C 80 % 1024,1 hPa 0,0 l/m 2 min 0 min 236 W/m 29,0 km/h (5 Bft) 100,00 %
10.12.2019 13:56 7,1 C 8,9 C 5,6 C 79 % 1023,9 hPa 0,0 l/m 2 min 0 min 230 W/m 19,3 km/h (3 Bft) 100,00 %
10.12.2019 13:58 7,1 C 9,4 C 5,6 C 79 % 1023,9 hPa 0,0 l/m 2 min 0 min 235 W/m 16,1 km/h (3 Bft) 98,11 %
10.12.2019 14:00 7,1 C 9,4 C 5,6 C 79 % 1023,8 hPa 0,0 l/m 2 min 0 min 235 W/m 16,1 km/h (3 Bft) 97,87 %
10.12.2019 14:02 7,1 C 9,4 C 5,6 C 79 % 1023,8 hPa 0,0 l/m 2 min 0 min 216 W/m 19,3 km/h (3 Bft) 98,00 %
10.12.2019 14:04 7,1 C 8,3 C 5,6 C 79 % 1023,8 hPa 0,0 l/m 2 min 0 min 127 W/m 19,3 km/h (3 Bft) 100,00 %
10.12.2019 14:06 7,1 C 7,8 C 5,6 C 78 % 1023,8 hPa 0,0 l/m 2 min 0 min 128 W/m 35,4 km/h (5 Bft) 97,87 %
10.12.2019 14:08 7,0 C 8,3 C 5,6 C 78 % 1023,8 hPa 0,0 l/m 2 min 0 min 219 W/m 29,0 km/h (5 Bft) 97,83 %
10.12.2019 14:10 7,0 C 8,9 C 5,6 C 78 % 1023,6 hPa 0,0 l/m 2 min 0 min 228 W/m 25,7 km/h (4 Bft) 95,74 %
10.12.2019 14:12 7,0 C 8,9 C 5,6 C 77 % 1023,6 hPa 0,0 l/m 2 min 0 min 221 W/m 35,4 km/h (5 Bft) 97,87 %
10.12.2019 14:14 7,0 C 8,9 C 5,6 C 77 % 1023,6 hPa 0,0 l/m 2 min 0 min 222 W/m 22,5 km/h (4 Bft) 97,87 %
10.12.2019 14:16 7,0 C 8,9 C 5,6 C 77 % 1023,6 hPa 0,0 l/m 2 min 0 min 220 W/m 19,3 km/h (3 Bft) 97,87 %
10.12.2019 14:18 7,0 C 8,9 C 5,6 C 78 % 1023,7 hPa 0,0 l/m 2 min 0 min 217 W/m 19,3 km/h (3 Bft) 97,87 %
10.12.2019 14:20 7,0 C 8,9 C 5,6 C 78 % 1023,6 hPa 0,0 l/m 2 min 0 min 208 W/m 32,2 km/h (5 Bft) 93,48 %
10.12.2019 14:22 7,0 C 8,9 C 5,6 C 78 % 1023,6 hPa 0,0 l/m 2 min 0 min 207 W/m 22,5 km/h (4 Bft) 95,74 %
10.12.2019 14:24 7,0 C 8,9 C 5,6 C 78 % 1023,4 hPa 0,0 l/m 2 min 0 min 205 W/m 22,5 km/h (4 Bft) 95,74 %
10.12.2019 14:26 7,0 C 8,9 C 5,6 C 78 % 1023,4 hPa 0,0 l/m 2 min 0 min 210 W/m 25,7 km/h (4 Bft) 93,62 %
10.12.2019 14:28 7,0 C 8,9 C 5,6 C 78 % 1023,3 hPa 0,0 l/m 2 min 0 min 210 W/m 19,3 km/h (3 Bft) 95,74 %
10.12.2019 14:30 6,9 C 8,3 C 5,6 C 78 % 1023,3 hPa 0,0 l/m 2 min 0 min 202 W/m 22,5 km/h (4 Bft) 97,87 %
10.12.2019 14:32 6,9 C 7,2 C 5,6 C 78 % 1023,1 hPa 0,0 l/m 2 min 0 min 195 W/m 25,7 km/h (4 Bft) 93,88 %
10.12.2019 14:34 6,9 C 6,7 C 5,6 C 78 % 1023,2 hPa 0,0 l/m 2 min 0 min 187 W/m 3,2 km/h (1 Bft) 93,62 %
10.12.2019 14:36 6,9 C 6,7 C 5,6 C 78 % 1023,2 hPa 0,0 l/m 2 min 0 min 169 W/m 22,5 km/h (4 Bft) 93,62 %
10.12.2019 14:38 6,9 C 6,7 C 5,6 C 78 % 1023,1 hPa 0,0 l/m 2 min 0 min 113 W/m 22,5 km/h (4 Bft) 97,83 %
10.12.2019 14:40 6,8 C 6,1 C 5,6 C 78 % 1023,0 hPa 0,0 l/m 0 min 0 min 84 W/m 25,7 km/h (4 Bft) 94,29 %
10.12.2019 14:42 6,8 C 6,1 C 5,6 C 78 % 1022,9 hPa 0,0 l/m 0 min 0 min 73 W/m 19,3 km/h (3 Bft) 94,44 %
10.12.2019 14:44 6,8 C 6,1 C 5,6 C 78 % 1022,9 hPa 0,0 l/m 0 min 0 min 78 W/m 22,5 km/h (4 Bft) 95,65 %
10.12.2019 14:46 6,8 C 6,1 C 5,6 C 78 % 1022,8 hPa 0,0 l/m 0 min 0 min 84 W/m 22,5 km/h (4 Bft) 95,74 %
10.12.2019 14:48 6,7 C 6,1 C 5,0 C 79 % 1022,8 hPa 0,0 l/m 0 min 0 min 85 W/m 12,9 km/h (3 Bft) 95,74 %
10.12.2019 14:50 6,7 C 6,1 C 5,6 C 79 % 1022,8 hPa 0,0 l/m 0 min 0 min 82 W/m 16,1 km/h (3 Bft) 93,62 %
10.12.2019 14:52 6,7 C 6,1 C 5,6 C 79 % 1022,8 hPa 0,0 l/m 0 min 0 min 80 W/m 16,1 km/h (3 Bft) 96,00 %
10.12.2019 14:54 6,7 C 6,1 C 5,6 C 79 % 1022,8 hPa 0,0 l/m 0 min 0 min 82 W/m 19,3 km/h (3 Bft) 95,65 %
10.12.2019 14:56 6,7 C 6,1 C 5,6 C 79 % 1022,9 hPa 0,0 l/m 0 min 0 min 74 W/m 19,3 km/h (3 Bft) 95,74 %
10.12.2019 14:58 6,6 C 6,1 C 5,0 C 79 % 1022,8 hPa 0,0 l/m 0 min 0 min 65 W/m 22,5 km/h (4 Bft) 96,00 %
10.12.2019 15:00 6,6 C 6,1 C 5,0 C 79 % 1022,7 hPa 0,0 l/m 0 min 0 min 62 W/m 19,3 km/h (3 Bft) 97,83 %
10.12.2019 15:02 6,6 C 6,1 C 5,0 C 79 % 1022,7 hPa 0,0 l/m 0 min 0 min 63 W/m 12,9 km/h (3 Bft) 97,87 %
10.12.2019 15:04 6,6 C 6,1 C 5,0 C 79 % 1022,6 hPa 0,0 l/m 0 min 0 min 62 W/m 25,7 km/h (4 Bft) 93,62 %
10.12.2019 15:06 6,5 C 6,1 C 5,0 C 78 % 1022,5 hPa 0,0 l/m 0 min 0 min 62 W/m 22,5 km/h (4 Bft) 97,87 %
10.12.2019 15:08 6,5 C 6,1 C 5,0 C 78 % 1022,4 hPa 0,0 l/m 0 min 0 min 63 W/m 25,7 km/h (4 Bft) 100,00 %
10.12.2019 15:10 6,5 C 6,1 C 5,0 C 78 % 1022,4 hPa 0,0 l/m 0 min 0 min 65 W/m 19,3 km/h (3 Bft) 94,34 %
10.12.2019 15:12 6,5 C 6,1 C 5,0 C 78 % 1022,3 hPa 0,0 l/m 0 min 0 min 69 W/m 16,1 km/h (3 Bft) 97,87 %
10.12.2019 15:14 6,5 C 6,1 C 5,0 C 78 % 1022,3 hPa 0,0 l/m 0 min 0 min 69 W/m 22,5 km/h (4 Bft) 98,00 %
10.12.2019 15:16 6,4 C 6,1 C 5,0 C 78 % 1022,3 hPa 0,0 l/m 0 min 0 min 66 W/m 25,7 km/h (4 Bft) 97,87 %
10.12.2019 15:18 6,4 C 6,1 C 5,0 C 78 % 1022,2 hPa 0,0 l/m 0 min 0 min 62 W/m 19,3 km/h (3 Bft) 95,65 %
10.12.2019 15:20 6,4 C 6,1 C 5,0 C 78 % 1022,2 hPa 0,0 l/m 0 min 0 min 60 W/m 19,3 km/h (3 Bft) 97,87 %
10.12.2019 15:22 6,4 C 6,1 C 5,0 C 78 % 1022,1 hPa 0,0 l/m 0 min 0 min 55 W/m 12,9 km/h (3 Bft) 95,74 %
10.12.2019 15:24 6,4 C 6,1 C 5,0 C 78 % 1022,1 hPa 0,0 l/m 0 min 0 min 53 W/m 12,9 km/h (3 Bft) 97,87 %
10.12.2019 15:26 6,3 C 5,6 C 5,0 C 78 % 1022,1 hPa 0,0 l/m 0 min 0 min 50 W/m 16,1 km/h (3 Bft) 97,87 %
10.12.2019 15:28 6,3 C 5,6 C 5,0 C 78 % 1022,0 hPa 0,0 l/m 0 min 0 min 47 W/m 19,3 km/h (3 Bft) 97,87 %
10.12.2019 15:30 6,3 C 5,6 C 5,0 C 78 % 1022,1 hPa 0,0 l/m 0 min 0 min 44 W/m 16,1 km/h (3 Bft) 97,83 %
10.12.2019 15:32 6,3 C 5,6 C 5,0 C 79 % 1022,1 hPa 0,0 l/m 0 min 0 min 41 W/m 12,9 km/h (3 Bft) 100,00 %
10.12.2019 15:34 6,3 C 5,6 C 5,0 C 79 % 1022,1 hPa 0,0 l/m 0 min 0 min 36 W/m 22,5 km/h (4 Bft) 100,00 %
10.12.2019 15:36 6,3 C 5,6 C 5,0 C 79 % 1022,1 hPa 0,0 l/m 0 min 0 min 31 W/m 12,9 km/h (3 Bft) 100,00 %
10.12.2019 15:38 6,2 C 5,6 C 5,0 C 79 % 1022,1 hPa 0,0 l/m 0 min 0 min 28 W/m 22,5 km/h (4 Bft) 97,87 %
10.12.2019 15:40 6,2 C 5,6 C 4,4 C 78 % 1022,1 hPa 0,0 l/m 0 min 0 min 25 W/m 19,3 km/h (3 Bft) 100,00 %
10.12.2019 15:42 6,2 C 5,6 C 4,4 C 78 % 1022,1 hPa 0,0 l/m 0 min 0 min 22 W/m 22,5 km/h (4 Bft) 97,87 %
10.12.2019 15:44 6,1 C 5,6 C 4,4 C 79 % 1022,2 hPa 0,0 l/m 0 min 0 min 21 W/m 16,1 km/h (3 Bft) 100,00 %
10.12.2019 15:46 6,1 C 5,0 C 4,4 C 79 % 1022,1 hPa 0,0 l/m 0 min 0 min 19 W/m 16,1 km/h (3 Bft) 97,87 %
10.12.2019 15:48 6,1 C 5,0 C 4,4 C 79 % 1022,2 hPa 0,0 l/m 0 min 0 min 18 W/m 25,7 km/h (4 Bft) 100,00 %
10.12.2019 15:50 6,1 C 5,0 C 4,4 C 79 % 1022,1 hPa 0,0 l/m 0 min 0 min 16 W/m 19,3 km/h (3 Bft) 100,00 %
10.12.2019 15:52 6,0 C 5,0 C 4,4 C 79 % 1022,1 hPa 0,0 l/m 0 min 0 min 16 W/m 19,3 km/h (3 Bft) 100,00 %
10.12.2019 15:54 5,9 C 5,0 C 4,4 C 79 % 1022,0 hPa 0,0 l/m 0 min 0 min 16 W/m 29,0 km/h (5 Bft) 100,00 %
10.12.2019 15:56 5,9 C 5,0 C 4,4 C 79 % 1022,0 hPa 0,0 l/m 0 min 0 min 16 W/m 22,5 km/h (4 Bft) 100,00 %
10.12.2019 15:58 5,9 C 5,0 C 4,4 C 79 % 1021,9 hPa 0,0 l/m 0 min 0 min 16 W/m 16,1 km/h (3 Bft) 100,00 %
10.12.2019 16:00 5,8 C 5,0 C 4,4 C 79 % 1021,9 hPa 0,0 l/m 0 min 0 min 16 W/m 22,5 km/h (4 Bft) 97,87 %
10.12.2019 16:02 5,8 C 5,0 C 4,4 C 78 % 1021,9 hPa 0,0 l/m 0 min 0 min 14 W/m 16,1 km/h (3 Bft) 97,87 %
10.12.2019 16:04 5,8 C 5,0 C 4,4 C 78 % 1021,9 hPa 0,0 l/m 0 min 0 min 13 W/m 19,3 km/h (3 Bft) 100,00 %
10.12.2019 16:06 5,8 C 5,0 C 4,4 C 79 % 1021,8 hPa 0,0 l/m 0 min 0 min 12 W/m 32,2 km/h (5 Bft) 100,00 %
10.12.2019 16:08 5,8 C 5,0 C 4,4 C 79 % 1021,8 hPa 0,0 l/m 0 min 0 min 11 W/m 12,9 km/h (3 Bft) 100,00 %
10.12.2019 16:10 5,7 C 5,0 C 3,9 C 78 % 1021,8 hPa 0,0 l/m 0 min 0 min 10 W/m 16,1 km/h (3 Bft) 97,96 %
10.12.2019 16:12 5,7 C 5,0 C 3,9 C 78 % 1021,7 hPa 0,0 l/m 0 min 0 min 9 W/m 19,3 km/h (3 Bft) 100,00 %
10.12.2019 16:14 5,7 C 5,0 C 4,4 C 78 % 1021,6 hPa 0,0 l/m 0 min 0 min 8 W/m 16,1 km/h (3 Bft) 100,00 %
10.12.2019 16:16 5,7 C 5,0 C 4,4 C 78 % 1021,6 hPa 0,0 l/m 0 min 0 min 7 W/m 6,4 km/h (2 Bft) 100,00 %
10.12.2019 16:18 5,6 C 5,0 C 3,9 C 78 % 1021,4 hPa 0,0 l/m 0 min 0 min 7 W/m 19,3 km/h (3 Bft) 56,52 %
10.12.2019 16:20 5,6 C 5,0 C 3,9 C 79 % 1021,4 hPa 0,0 l/m 0 min 0 min 5 W/m 16,1 km/h (3 Bft) 100,00 %
10.12.2019 16:22 5,6 C 5,0 C 3,9 C 79 % 1021,3 hPa 0,0 l/m 0 min 0 min 3 W/m 19,3 km/h (3 Bft) 100,00 %
10.12.2019 16:24 5,6 C 5,0 C 3,9 C 79 % 1021,3 hPa 0,0 l/m 0 min 0 min 0 W/m 22,5 km/h (4 Bft) 100,00 %
10.12.2019 16:26 5,6 C 4,4 C 3,9 C 79 % 1021,3 hPa 0,0 l/m 0 min 0 min 0 W/m 16,1 km/h (3 Bft) 100,00 %
10.12.2019 16:28 5,6 C 4,4 C 3,9 C 79 % 1021,3 hPa 0,0 l/m 0 min 0 min 0 W/m 12,9 km/h (3 Bft) 97,87 %
10.12.2019 16:30 5,5 C 4,4 C 3,9 C 79 % 1021,3 hPa 0,0 l/m 0 min 0 min 0 W/m 12,9 km/h (3 Bft) 97,87 %
10.12.2019 16:32 5,5 C 4,4 C 3,9 C 80 % 1021,3 hPa 0,0 l/m 0 min 0 min 0 W/m 16,1 km/h (3 Bft) 97,14 %
10.12.2019 16:34 5,5 C 4,4 C 3,9 C 80 % 1021,3 hPa 0,0 l/m 0 min 0 min 0 W/m 12,9 km/h (3 Bft) 95,74 %
10.12.2019 16:36 5,4 C 4,4 C 3,9 C 80 % 1021,3 hPa 0,0 l/m 0 min 0 min 0 W/m 19,3 km/h (3 Bft) 98,11 %
10.12.2019 16:38 5,4 C 4,4 C 3,9 C 80 % 1021,2 hPa 0,0 l/m 0 min 0 min 0 W/m 16,1 km/h (3 Bft) 100,00 %
10.12.2019 16:40 5,4 C 4,4 C 3,9 C 80 % 1021,1 hPa 0,0 l/m 0 min 0 min 0 W/m 12,9 km/h (3 Bft) 97,83 %
10.12.2019 16:42 5,4 C 4,4 C 3,9 C 80 % 1021,0 hPa 0,0 l/m 0 min 0 min 0 W/m 12,9 km/h (3 Bft) 97,87 %
10.12.2019 16:44 5,4 C 4,4 C 3,9 C 81 % 1021,0 hPa 0,0 l/m 0 min 0 min 0 W/m 12,9 km/h (3 Bft) 97,87 %
10.12.2019 16:46 5,3 C 4,4 C 3,9 C 81 % 1021,0 hPa 0,0 l/m 0 min 0 min 0 W/m 3,2 km/h (1 Bft) 95,74 %
10.12.2019 16:48 5,3 C 4,4 C 3,9 C 81 % 1021,0 hPa 0,0 l/m 0 min 0 min 0 W/m 12,9 km/h (3 Bft) 97,87 %
10.12.2019 16:50 5,3 C 4,4 C 3,9 C 81 % 1021,0 hPa 0,0 l/m 0 min 0 min 0 W/m 6,4 km/h (2 Bft) 97,83 %
10.12.2019 16:52 5,3 C 4,4 C 3,9 C 81 % 1021,0 hPa 0,0 l/m 0 min 0 min 0 W/m 19,3 km/h (3 Bft) 97,87 %
10.12.2019 16:54 5,3 C 4,4 C 3,9 C 82 % 1021,0 hPa 0,0 l/m 0 min 0 min 0 W/m 6,4 km/h (2 Bft) 97,87 %
10.12.2019 16:56 5,3 C 4,4 C 3,9 C 81 % 1021,0 hPa 0,0 l/m 0 min 0 min 0 W/m 12,9 km/h (3 Bft) 97,96 %
10.12.2019 16:58 5,3 C 4,4 C 3,9 C 82 % 1021,2 hPa 0,0 l/m 0 min 0 min 0 W/m 3,2 km/h (1 Bft) 97,22 %
10.12.2019 17:00 5,2 C 4,4 C 3,9 C 82 % 1021,1 hPa 0,0 l/m 0 min 0 min 0 W/m 3,2 km/h (1 Bft) 95,65 %
10.12.2019 17:02 5,2 C 4,4 C 3,9 C 82 % 1021,1 hPa 0,0 l/m 0 min 0 min 0 W/m 3,2 km/h (1 Bft) 97,87 %
10.12.2019 17:04 5,2 C 4,4 C 3,3 C 82 % 1021,1 hPa 0,0 l/m 0 min 0 min 0 W/m 6,4 km/h (2 Bft) 97,87 %
10.12.2019 17:06 5,2 C 4,4 C 3,3 C 82 % 1021,0 hPa 0,0 l/m 0 min 0 min 0 W/m 6,4 km/h (2 Bft) 95,74 %
10.12.2019 17:08 5,2 C 4,4 C 3,3 C 82 % 1021,0 hPa 0,0 l/m 0 min 0 min 0 W/m 16,1 km/h (3 Bft) 97,87 %
10.12.2019 17:10 5,1 C 4,4 C 3,3 C 82 % 1021,0 hPa 0,0 l/m 0 min 0 min 0 W/m 6,4 km/h (2 Bft) 95,74 %
10.12.2019 17:12 5,1 C 4,4 C 3,3 C 82 % 1021,0 hPa 0,0 l/m 0 min 0 min 0 W/m 12,9 km/h (3 Bft) 97,83 %
10.12.2019 17:14 5,1 C 4,4 C 3,3 C 83 % 1020,9 hPa 0,0 l/m 0 min 0 min 0 W/m 19,3 km/h (3 Bft) 98,11 %
10.12.2019 17:16 5,1 C 4,4 C 3,3 C 82 % 1020,8 hPa 0,0 l/m 0 min 0 min 0 W/m 16,1 km/h (3 Bft) 94,00 %
10.12.2019 17:18 5,1 C 4,4 C 3,3 C 83 % 1020,8 hPa 0,0 l/m 0 min 0 min 0 W/m 6,4 km/h (2 Bft) 97,87 %
10.12.2019 17:20 5,1 C 4,4 C 3,3 C 83 % 1020,7 hPa 0,0 l/m 0 min 0 min 0 W/m 3,2 km/h (1 Bft) 95,92 %
10.12.2019 17:22 5,0 C 4,4 C 3,3 C 83 % 1020,7 hPa 0,0 l/m 0 min 0 min 0 W/m 6,4 km/h (2 Bft) 97,87 %
10.12.2019 17:24 5,0 C 4,4 C 3,3 C 83 % 1020,7 hPa 0,0 l/m 0 min 0 min 0 W/m 6,4 km/h (2 Bft) 100,00 %
10.12.2019 17:26 5,0 C 4,4 C 3,3 C 83 % 1020,7 hPa 0,0 l/m 0 min 0 min 0 W/m 12,9 km/h (3 Bft) 95,74 %
10.12.2019 17:28 4,9 C 4,4 C 3,3 C 83 % 1020,6 hPa 0,0 l/m 0 min 0 min 0 W/m 16,1 km/h (3 Bft) 95,74 %
10.12.2019 17:30 4,9 C 3,9 C 3,3 C 83 % 1020,5 hPa 0,0 l/m 0 min 0 min 0 W/m 12,9 km/h (3 Bft) 94,29 %
10.12.2019 17:32 4,9 C 4,4 C 3,3 C 83 % 1020,4 hPa 0,0 l/m 0 min 0 min 0 W/m 16,1 km/h (3 Bft) 96,23 %
10.12.2019 17:34 4,9 C 3,9 C 3,3 C 83 % 1020,4 hPa 0,0 l/m 0 min 0 min 0 W/m 16,1 km/h (3 Bft) 95,74 %
10.12.2019 17:36 4,9 C 3,9 C 3,3 C 83 % 1020,4 hPa 0,0 l/m 0 min 0 min 0 W/m 25,7 km/h (4 Bft) 95,74 %
10.12.2019 17:38 4,9 C 3,9 C 3,3 C 83 % 1020,4 hPa 0,0 l/m 0 min 0 min 0 W/m 19,3 km/h (3 Bft) 95,65 %
10.12.2019 17:40 4,8 C 3,9 C 3,3 C 83 % 1020,4 hPa 0,0 l/m 0 min 0 min 0 W/m 19,3 km/h (3 Bft) 96,00 %
10.12.2019 17:42 4,8 C 3,9 C 3,3 C 83 % 1020,3 hPa 0,0 l/m 0 min 0 min 0 W/m 19,3 km/h (3 Bft) 95,74 %
10.12.2019 17:44 4,8 C 3,9 C 3,3 C 83 % 1020,3 hPa 0,0 l/m 0 min 0 min 0 W/m 19,3 km/h (3 Bft) 97,87 %
10.12.2019 17:46 4,8 C 3,9 C 3,3 C 83 % 1020,2 hPa 0,0 l/m 0 min 0 min 0 W/m 25,7 km/h (4 Bft) 95,74 %
10.12.2019 17:48 4,8 C 3,9 C 3,3 C 83 % 1020,1 hPa 0,0 l/m 0 min 0 min 0 W/m 22,5 km/h (4 Bft) 95,65 %
10.12.2019 17:50 4,8 C 3,9 C 3,3 C 83 % 1020,1 hPa 0,0 l/m 0 min 0 min 0 W/m 19,3 km/h (3 Bft) 93,62 %
10.12.2019 17:52 4,8 C 3,9 C 3,3 C 83 % 1020,1 hPa 0,0 l/m 0 min 0 min 0 W/m 12,9 km/h (3 Bft) 93,62 %
10.12.2019 17:54 4,8 C 3,9 C 3,3 C 83 % 1020,0 hPa 0,0 l/m 0 min 0 min 0 W/m 19,3 km/h (3 Bft) 95,74 %
10.12.2019 17:56 4,8 C 3,9 C 3,3 C 83 % 1020,0 hPa 0,0 l/m 0 min 0 min 0 W/m 32,2 km/h (5 Bft) 97,87 %
10.12.2019 17:58 4,8 C 3,9 C 3,3 C 83 % 1019,9 hPa 0,0 l/m 0 min 0 min 0 W/m 32,2 km/h (5 Bft) 95,74 %
10.12.2019 18:00 4,8 C 3,9 C 3,3 C 83 % 1019,8 hPa 0,0 l/m 0 min 0 min 0 W/m 25,7 km/h (4 Bft) 97,83 %
10.12.2019 18:02 4,8 C 3,9 C 3,3 C 83 % 1019,8 hPa 0,0 l/m 0 min 0 min 0 W/m 22,5 km/h (4 Bft) 97,87 %
10.12.2019 18:04 4,8 C 3,9 C 3,3 C 83 % 1019,7 hPa 0,0 l/m 0 min 0 min 0 W/m 6,4 km/h (2 Bft) 98,00 %
10.12.2019 18:08 4,8 C 3,9 C 3,3 C 83 % 1019,7 hPa 0,0 l/m 0 min 0 min 0 W/m 16,1 km/h (3 Bft) 97,85 %
10.12.2019 18:10 4,7 C 3,9 C 3,3 C 83 % 1019,6 hPa 0,0 l/m 0 min 0 min 0 W/m 16,1 km/h (3 Bft) 97,87 %
10.12.2019 18:12 4,7 C 3,9 C 3,3 C 83 % 1019,6 hPa 0,0 l/m 0 min 0 min 0 W/m 12,9 km/h (3 Bft) 97,87 %
10.12.2019 18:14 4,7 C 3,9 C 3,3 C 83 % 1019,6 hPa 0,0 l/m 0 min 0 min 0 W/m 16,1 km/h (3 Bft) 97,87 %
10.12.2019 18:16 4,7 C 3,9 C 3,3 C 83 % 1019,6 hPa 0,0 l/m 0 min 0 min 0 W/m 19,3 km/h (3 Bft) 97,87 %
10.12.2019 18:18 4,7 C 3,9 C 3,3 C 83 % 1019,6 hPa 0,0 l/m 0 min 0 min 0 W/m 16,1 km/h (3 Bft) 97,14 %
10.12.2019 18:20 4,7 C 3,9 C 3,3 C 83 % 1019,6 hPa 0,0 l/m 0 min 0 min 0 W/m 16,1 km/h (3 Bft) 97,87 %
10.12.2019 18:22 4,7 C 3,9 C 3,3 C 83 % 1019,6 hPa 0,0 l/m 0 min 0 min 0 W/m 16,1 km/h (3 Bft) 97,83 %
10.12.2019 18:24 4,7 C 3,9 C 3,3 C 83 % 1019,5 hPa 0,0 l/m 0 min 0 min 0 W/m 22,5 km/h (4 Bft) 97,87 %
10.12.2019 18:26 4,7 C 3,9 C 3,3 C 83 % 1019,4 hPa 0,0 l/m 0 min 0 min 0 W/m 29,0 km/h (5 Bft) 98,11 %
10.12.2019 18:28 4,6 C 3,9 C 3,3 C 82 % 1019,3 hPa 0,0 l/m 0 min 0 min 0 W/m 16,1 km/h (3 Bft) 97,87 %
10.12.2019 18:30 4,6 C 3,9 C 3,3 C 82 % 1019,3 hPa 0,0 l/m 0 min 0 min 0 W/m 22,5 km/h (4 Bft) 97,87 %
10.12.2019 18:32 4,6 C 3,9 C 3,3 C 82 % 1019,3 hPa 0,0 l/m 0 min 0 min 0 W/m 22,5 km/h (4 Bft) 100,00 %
10.12.2019 18:34 4,6 C 3,9 C 3,3 C 82 % 1019,3 hPa 0,0 l/m 0 min 0 min 0 W/m 6,4 km/h (2 Bft) 85,11 %
10.12.2019 18:36 4,6 C 3,9 C 3,3 C 82 % 1019,3 hPa 0,0 l/m 0 min 0 min 0 W/m 19,3 km/h (3 Bft) 71,74 %
10.12.2019 18:38 4,6 C 3,9 C 3,3 C 82 % 1019,3 hPa 0,0 l/m 0 min 0 min 0 W/m 25,7 km/h (4 Bft) 100,00 %
10.12.2019 18:40 4,6 C 3,9 C 3,3 C 82 % 1019,3 hPa 0,0 l/m 0 min 0 min 0 W/m 22,5 km/h (4 Bft) 100,00 %
10.12.2019 18:42 4,6 C 3,9 C 3,3 C 82 % 1019,3 hPa 0,0 l/m 0 min 0 min 0 W/m 16,1 km/h (3 Bft) 97,87 %
10.12.2019 18:44 4,6 C 3,9 C 3,3 C 82 % 1019,3 hPa 0,0 l/m 0 min 0 min 0 W/m 22,5 km/h (4 Bft) 100,00 %
10.12.2019 18:46 4,6 C 3,9 C 3,3 C 82 % 1019,3 hPa 0,0 l/m 0 min 0 min 0 W/m 22,5 km/h (4 Bft) 100,00 %
10.12.2019 18:48 4,6 C 3,9 C 3,3 C 82 % 1019,3 hPa 0,0 l/m 0 min 0 min 0 W/m 22,5 km/h (4 Bft) 100,00 %
10.12.2019 18:50 4,6 C 3,9 C 3,3 C 82 % 1019,3 hPa 0,0 l/m 0 min 0 min 0 W/m 22,5 km/h (4 Bft) 100,00 %
10.12.2019 18:52 4,6 C 3,9 C 3,3 C 82 % 1019,3 hPa 0,0 l/m 0 min 0 min 0 W/m 25,7 km/h (4 Bft) 100,00 %
10.12.2019 18:54 4,5 C 3,9 C 3,3 C 82 % 1019,3 hPa 0,0 l/m 0 min 0 min 0 W/m 29,0 km/h (5 Bft) 100,00 %
10.12.2019 18:56 4,5 C 3,9 C 3,3 C 82 % 1019,2 hPa 0,0 l/m 0 min 0 min 0 W/m 25,7 km/h (4 Bft) 100,00 %
10.12.2019 18:58 4,5 C 3,9 C 3,3 C 82 % 1019,2 hPa 0,0 l/m 0 min 0 min 0 W/m 19,3 km/h (3 Bft) 100,00 %
10.12.2019 19:00 4,5 C 3,9 C 3,3 C 82 % 1019,1 hPa 0,0 l/m 0 min 0 min 0 W/m 25,7 km/h (4 Bft) 97,87 %
10.12.2019 19:02 4,5 C 3,9 C 3,3 C 82 % 1019,1 hPa 0,0 l/m 0 min 0 min 0 W/m 22,5 km/h (4 Bft) 100,00 %
10.12.2019 19:04 4,5 C 3,9 C 3,3 C 82 % 1019,1 hPa 0,0 l/m 0 min 0 min 0 W/m 19,3 km/h (3 Bft) 97,87 %
10.12.2019 19:06 4,5 C 3,9 C 3,3 C 81 % 1019,1 hPa 0,0 l/m 0 min 0 min 0 W/m 22,5 km/h (4 Bft) 100,00 %
10.12.2019 19:08 4,4 C 3,9 C 3,3 C 81 % 1019,1 hPa 0,0 l/m 0 min 0 min 0 W/m 25,7 km/h (4 Bft) 100,00 %
10.12.2019 19:10 4,4 C 3,9 C 3,3 C 81 % 1019,0 hPa 0,0 l/m 0 min 0 min 0 W/m 25,7 km/h (4 Bft) 100,00 %
10.12.2019 19:12 4,4 C 3,9 C 3,3 C 81 % 1018,9 hPa 0,0 l/m 0 min 0 min 0 W/m 32,2 km/h (5 Bft) 100,00 %
10.12.2019 19:14 4,4 C 3,9 C 3,3 C 81 % 1018,9 hPa 0,0 l/m 0 min 0 min 0 W/m 29,0 km/h (5 Bft) 100,00 %
10.12.2019 19:16 4,4 C 3,9 C 3,3 C 81 % 1018,8 hPa 0,0 l/m 0 min 0 min 0 W/m 32,2 km/h (5 Bft) 100,00 %
10.12.2019 19:18 4,4 C 3,9 C 3,3 C 81 % 1018,9 hPa 0,0 l/m 0 min 0 min 0 W/m 22,5 km/h (4 Bft) 95,65 %
10.12.2019 19:20 4,4 C 3,9 C 3,3 C 80 % 1018,8 hPa 0,0 l/m 0 min 0 min 0 W/m 35,4 km/h (5 Bft) 97,87 %
10.12.2019 19:22 4,4 C 3,9 C 3,3 C 80 % 1018,9 hPa 0,0 l/m 0 min 0 min 0 W/m 16,1 km/h (3 Bft) 95,74 %
10.12.2019 19:24 4,4 C 3,9 C 3,3 C 80 % 1018,8 hPa 0,0 l/m 0 min 0 min 0 W/m 22,5 km/h (4 Bft) 97,87 %
10.12.2019 19:26 4,4 C 3,9 C 3,3 C 80 % 1018,9 hPa 0,0 l/m 0 min 0 min 0 W/m 12,9 km/h (3 Bft) 95,74 %
10.12.2019 19:28 4,4 C 3,9 C 3,3 C 80 % 1018,8 hPa 0,0 l/m 0 min 0 min 0 W/m 22,5 km/h (4 Bft) 97,87 %
10.12.2019 19:30 4,4 C 3,9 C 3,3 C 80 % 1018,7 hPa 0,0 l/m 0 min 0 min 0 W/m 25,7 km/h (4 Bft) 97,83 %
10.12.2019 19:32 4,4 C 3,9 C 3,3 C 80 % 1018,7 hPa 0,0 l/m 0 min 0 min 0 W/m 35,4 km/h (5 Bft) 97,87 %
10.12.2019 19:34 4,4 C 3,9 C 3,3 C 80 % 1018,7 hPa 0,0 l/m 0 min 0 min 0 W/m 29,0 km/h (5 Bft) 97,87 %
10.12.2019 19:36 4,4 C 3,9 C 3,3 C 80 % 1018,7 hPa 0,0 l/m 0 min 0 min 0 W/m 22,5 km/h (4 Bft) 97,87 %
10.12.2019 19:38 4,4 C 3,9 C 3,3 C 80 % 1018,6 hPa 0,0 l/m 0 min 0 min 0 W/m 22,5 km/h (4 Bft) 94,34 %
10.12.2019 19:40 4,4 C 3,9 C 3,3 C 81 % 1018,6 hPa 0,0 l/m 0 min 0 min 0 W/m 16,1 km/h (3 Bft) 96,00 %
10.12.2019 19:42 4,4 C 3,9 C 3,3 C 81 % 1018,5 hPa 0,0 l/m 0 min 0 min 0 W/m 19,3 km/h (3 Bft) 95,74 %
10.12.2019 19:44 4,4 C 3,9 C 3,3 C 81 % 1018,5 hPa 0,0 l/m 0 min 0 min 0 W/m 22,5 km/h (4 Bft) 95,65 %
10.12.2019 19:46 4,4 C 3,9 C 3,3 C 81 % 1018,4 hPa 0,0 l/m 0 min 0 min 0 W/m 35,4 km/h (5 Bft) 96,00 %
10.12.2019 19:48 4,4 C 3,9 C 3,3 C 81 % 1018,2 hPa 0,0 l/m 0 min 0 min 0 W/m 22,5 km/h (4 Bft) 93,62 %
10.12.2019 19:50 4,4 C 3,9 C 3,3 C 81 % 1018,2 hPa 0,0 l/m 0 min 0 min 0 W/m 41,8 km/h (6 Bft) 95,74 %
10.12.2019 19:52 4,4 C 3,9 C 3,3 C 81 % 1018,2 hPa 0,0 l/m 0 min 0 min 0 W/m 19,3 km/h (3 Bft) 95,65 %
10.12.2019 19:54 4,4 C 3,9 C 3,3 C 81 % 1018,2 hPa 0,0 l/m 0 min 0 min 0 W/m 19,3 km/h (3 Bft) 94,29 %
10.12.2019 19:56 4,4 C 3,9 C 3,3 C 81 % 1018,1 hPa 0,0 l/m 0 min 0 min 0 W/m 22,5 km/h (4 Bft) 95,74 %
10.12.2019 19:58 4,4 C 3,9 C 3,3 C 81 % 1018,0 hPa 0,0 l/m 0 min 0 min 0 W/m 22,5 km/h (4 Bft) 95,74 %
10.12.2019 20:00 4,4 C 3,9 C 3,3 C 81 % 1018,0 hPa 0,0 l/m 0 min 0 min 0 W/m 19,3 km/h (3 Bft) 93,62 %
10.12.2019 20:02 4,4 C 3,9 C 3,3 C 81 % 1017,9 hPa 0,0 l/m 0 min 0 min 0 W/m 29,0 km/h (5 Bft) 95,74 %
10.12.2019 20:04 4,4 C 3,9 C 3,3 C 81 % 1017,8 hPa 0,0 l/m 0 min 0 min 0 W/m 35,4 km/h (5 Bft) 93,62 %
10.12.2019 20:06 4,4 C 3,9 C 3,3 C 81 % 1017,8 hPa 0,0 l/m 0 min 0 min 0 W/m 25,7 km/h (4 Bft) 97,83 %
10.12.2019 20:08 4,3 C 3,9 C 3,3 C 81 % 1017,8 hPa 0,0 l/m 0 min 0 min 0 W/m 19,3 km/h (3 Bft) 97,87 %
10.12.2019 20:10 4,3 C 3,9 C 3,3 C 81 % 1017,7 hPa 0,0 l/m 0 min 0 min 0 W/m 22,5 km/h (4 Bft) 95,74 %
10.12.2019 20:12 4,3 C 3,9 C 3,3 C 81 % 1017,7 hPa 0,0 l/m 0 min 0 min 0 W/m 25,7 km/h (4 Bft) 97,87 %
10.12.2019 20:14 4,3 C 3,9 C 3,3 C 81 % 1017,7 hPa 0,0 l/m 0 min 0 min 0 W/m 25,7 km/h (4 Bft) 93,62 %
10.12.2019 20:16 4,3 C 3,9 C 3,3 C 81 % 1017,7 hPa 0,0 l/m 0 min 0 min 0 W/m 38,6 km/h (5 Bft) 97,87 %
10.12.2019 20:18 4,3 C 3,9 C 3,3 C 81 % 1017,5 hPa 0,0 l/m 0 min 0 min 0 W/m 25,7 km/h (4 Bft) 97,83 %
10.12.2019 20:20 4,3 C 3,9 C 3,3 C 81 % 1017,5 hPa 0,0 l/m 0 min 0 min 0 W/m 22,5 km/h (4 Bft) 95,45 %
10.12.2019 20:22 4,3 C 3,9 C 3,3 C 81 % 1017,5 hPa 0,0 l/m 0 min 0 min 0 W/m 25,7 km/h (4 Bft) 100,00 %
10.12.2019 20:24 4,3 C 3,9 C 3,3 C 81 % 1017,5 hPa 0,0 l/m 0 min 0 min 0 W/m 25,7 km/h (4 Bft) 97,87 %
10.12.2019 20:26 4,3 C 3,9 C 3,3 C 81 % 1017,4 hPa 0,0 l/m 0 min 0 min 0 W/m 45,1 km/h (6 Bft) 97,87 %
10.12.2019 20:28 4,3 C 3,9 C 3,3 C 82 % 1017,5 hPa 0,0 l/m 0 min 0 min 0 W/m 35,4 km/h (5 Bft) 97,83 %
10.12.2019 20:30 4,3 C 3,9 C 3,3 C 82 % 1017,5 hPa 0,0 l/m 0 min 0 min 0 W/m 19,3 km/h (3 Bft) 97,87 %
10.12.2019 20:32 4,3 C 3,9 C 3,3 C 82 % 1017,4 hPa 0,0 l/m 0 min 0 min 0 W/m 25,7 km/h (4 Bft) 97,87 %
10.12.2019 20:34 4,3 C 3,9 C 3,3 C 82 % 1017,4 hPa 0,0 l/m 0 min 0 min 0 W/m 35,4 km/h (5 Bft) 100,00 %
10.12.2019 20:36 4,3 C 3,9 C 3,3 C 82 % 1017,4 hPa 0,0 l/m 0 min 0 min 0 W/m 35,4 km/h (5 Bft) 100,00 %
10.12.2019 20:38 4,3 C 3,9 C 3,3 C 82 % 1017,4 hPa 0,0 l/m 0 min 0 min 0 W/m 6,4 km/h (2 Bft) 100,00 %
10.12.2019 20:40 4,3 C 3,9 C 2,8 C 82 % 1017,4 hPa 0,0 l/m 0 min 0 min 0 W/m 16,1 km/h (3 Bft) 100,00 %
10.12.2019 20:42 4,3 C 3,3 C 2,8 C 82 % 1017,4 hPa 0,0 l/m 0 min 0 min 0 W/m 19,3 km/h (3 Bft) 95,74 %
10.12.2019 20:44 4,3 C 3,3 C 2,8 C 82 % 1017,3 hPa 0,0 l/m 0 min 0 min 0 W/m 22,5 km/h (4 Bft) 100,00 %
10.12.2019 20:46 4,3 C 3,3 C 2,8 C 82 % 1017,3 hPa 0,0 l/m 0 min 0 min 0 W/m 25,7 km/h (4 Bft) 100,00 %
10.12.2019 20:48 4,3 C 3,3 C 2,8 C 82 % 1017,4 hPa 0,0 l/m 0 min 0 min 0 W/m 29,0 km/h (5 Bft) 100,00 %
10.12.2019 20:50 4,2 C 3,3 C 2,8 C 82 % 1017,4 hPa 0,0 l/m 0 min 0 min 0 W/m 16,1 km/h (3 Bft) 100,00 %
10.12.2019 20:52 4,2 C 3,3 C 2,8 C 82 % 1017,4 hPa 0,0 l/m 0 min 0 min 0 W/m 12,9 km/h (3 Bft) 100,00 %
10.12.2019 20:54 4,2 C 3,3 C 2,8 C 82 % 1017,4 hPa 0,0 l/m 0 min 0 min 0 W/m 19,3 km/h (3 Bft) 100,00 %
10.12.2019 20:56 4,2 C 3,3 C 2,8 C 83 % 1017,4 hPa 0,0 l/m 0 min 0 min 0 W/m 25,7 km/h (4 Bft) 100,00 %
10.12.2019 20:58 4,2 C 3,3 C 2,8 C 83 % 1017,3 hPa 0,0 l/m 0 min 0 min 0 W/m 6,4 km/h (2 Bft) 100,00 %
10.12.2019 21:00 4,2 C 3,3 C 2,8 C 83 % 1017,2 hPa 0,0 l/m 0 min 0 min 0 W/m 22,5 km/h (4 Bft) 100,00 %
10.12.2019 21:02 4,2 C 3,3 C 2,8 C 83 % 1017,1 hPa 0,0 l/m 0 min 0 min 0 W/m 25,7 km/h (4 Bft) 100,00 %
10.12.2019 21:04 4,2 C 3,3 C 2,8 C 83 % 1017,2 hPa 0,0 l/m 0 min 0 min 0 W/m 22,5 km/h (4 Bft) 100,00 %
10.12.2019 21:06 4,2 C 3,3 C 2,8 C 83 % 1017,1 hPa 0,0 l/m 0 min 0 min 0 W/m 22,5 km/h (4 Bft) 95,74 %
10.12.2019 21:08 4,2 C 3,3 C 2,8 C 83 % 1017,0 hPa 0,0 l/m 0 min 0 min 0 W/m 22,5 km/h (4 Bft) 100,00 %
10.12.2019 21:10 4,2 C 3,3 C 2,8 C 83 % 1017,0 hPa 0,0 l/m 0 min 0 min 0 W/m 22,5 km/h (4 Bft) 100,00 %
10.12.2019 21:12 4,2 C 3,3 C 2,8 C 83 % 1016,9 hPa 0,0 l/m 0 min 0 min 0 W/m 25,7 km/h (4 Bft) 100,00 %
10.12.2019 21:14 4,2 C 3,3 C 2,8 C 84 % 1016,9 hPa 0,0 l/m 0 min 0 min 0 W/m 19,3 km/h (3 Bft) 97,87 %
10.12.2019 21:16 4,2 C 3,9 C 2,8 C 84 % 1016,8 hPa 0,0 l/m 0 min 0 min 0 W/m 25,7 km/h (4 Bft) 97,83 %
10.12.2019 21:18 4,2 C 3,9 C 2,8 C 84 % 1016,8 hPa 0,0 l/m 0 min 0 min 0 W/m 6,4 km/h (2 Bft) 97,87 %
10.12.2019 21:20 4,2 C 3,9 C 2,8 C 84 % 1016,8 hPa 0,0 l/m 0 min 0 min 0 W/m 29,0 km/h (5 Bft) 95,74 %
10.12.2019 21:22 4,2 C 3,9 C 3,3 C 84 % 1016,7 hPa 0,0 l/m 0 min 0 min 0 W/m 16,1 km/h (3 Bft) 97,87 %
10.12.2019 21:24 4,2 C 3,9 C 3,3 C 84 % 1016,6 hPa 0,0 l/m 0 min 0 min 0 W/m 32,2 km/h (5 Bft) 95,74 %
10.12.2019 21:26 4,2 C 3,9 C 3,3 C 84 % 1016,5 hPa 0,0 l/m 0 min 0 min 0 W/m 29,0 km/h (5 Bft) 97,87 %
10.12.2019 21:28 4,3 C 3,9 C 3,3 C 84 % 1016,6 hPa 0,0 l/m 0 min 0 min 0 W/m 25,7 km/h (4 Bft) 95,65 %
10.12.2019 21:30 4,3 C 3,9 C 3,3 C 84 % 1016,5 hPa 0,0 l/m 0 min 0 min 0 W/m 35,4 km/h (5 Bft) 95,74 %
10.12.2019 21:32 4,3 C 3,9 C 3,3 C 83 % 1016,4 hPa 0,0 l/m 0 min 0 min 0 W/m 35,4 km/h (5 Bft) 97,87 %
10.12.2019 21:34 4,3 C 3,9 C 3,3 C 83 % 1016,4 hPa 0,0 l/m 0 min 0 min 0 W/m 25,7 km/h (4 Bft) 95,74 %
10.12.2019 21:36 4,3 C 3,9 C 3,3 C 83 % 1016,3 hPa 0,0 l/m 0 min 0 min 0 W/m 35,4 km/h (5 Bft) 97,87 %
10.12.2019 21:38 4,3 C 3,9 C 3,3 C 83 % 1016,3 hPa 0,0 l/m 0 min 0 min 0 W/m 35,4 km/h (5 Bft) 97,83 %
10.12.2019 21:40 4,3 C 3,9 C 3,3 C 83 % 1016,2 hPa 0,0 l/m 0 min 0 min 0 W/m 25,7 km/h (4 Bft) 95,74 %
10.12.2019 21:42 4,3 C 3,9 C 3,3 C 83 % 1016,2 hPa 0,0 l/m 0 min 0 min 0 W/m 38,6 km/h (5 Bft) 97,87 %
10.12.2019 21:44 4,3 C 3,9 C 3,3 C 83 % 1016,2 hPa 0,0 l/m 0 min 0 min 0 W/m 25,7 km/h (4 Bft) 97,87 %
10.12.2019 21:46 4,3 C 3,9 C 3,3 C 83 % 1016,1 hPa 0,0 l/m 0 min 0 min 0 W/m 35,4 km/h (5 Bft) 97,87 %
10.12.2019 21:48 4,3 C 3,9 C 3,3 C 83 % 1015,9 hPa 0,0 l/m 0 min 0 min 0 W/m 29,0 km/h (5 Bft) 97,87 %
10.12.2019 21:50 4,3 C 3,9 C 3,3 C 83 % 1016,0 hPa 0,0 l/m 0 min 0 min 0 W/m 25,7 km/h (4 Bft) 97,83 %
10.12.2019 21:52 4,3 C 3,9 C 3,3 C 83 % 1015,9 hPa 0,0 l/m 0 min 0 min 0 W/m 29,0 km/h (5 Bft) 95,74 %
10.12.2019 21:54 4,3 C 3,9 C 3,3 C 83 % 1015,8 hPa 0,0 l/m 0 min 0 min 0 W/m 22,5 km/h (4 Bft) 97,87 %
10.12.2019 21:56 4,3 C 3,9 C 3,3 C 83 % 1015,7 hPa 0,0 l/m 0 min 0 min 0 W/m 35,4 km/h (5 Bft) 97,87 %
10.12.2019 21:58 4,3 C 3,9 C 3,3 C 83 % 1015,7 hPa 0,0 l/m 0 min 0 min 0 W/m 29,0 km/h (5 Bft) 97,87 %
10.12.2019 22:00 4,3 C 3,9 C 3,3 C 83 % 1015,7 hPa 0,0 l/m 0 min 0 min 0 W/m 29,0 km/h (5 Bft) 97,87 %
10.12.2019 22:02 4,3 C 3,9 C 3,3 C 83 % 1015,8 hPa 0,0 l/m 0 min 0 min 0 W/m 41,8 km/h (6 Bft) 95,65 %
10.12.2019 22:04 4,4 C 3,9 C 3,3 C 83 % 1015,7 hPa 0,0 l/m 0 min 0 min 0 W/m 38,6 km/h (5 Bft) 95,74 %
10.12.2019 22:06 4,4 C 3,9 C 3,3 C 83 % 1015,7 hPa 0,0 l/m 0 min 0 min 0 W/m 25,7 km/h (4 Bft) 95,74 %
10.12.2019 22:08 4,4 C 3,9 C 3,3 C 83 % 1015,7 hPa 0,0 l/m 0 min 0 min 0 W/m 25,7 km/h (4 Bft) 95,74 %
10.12.2019 22:10 4,4 C 3,9 C 3,3 C 83 % 1015,6 hPa 0,0 l/m 0 min 2 min 0 W/m 32,2 km/h (5 Bft) 97,87 %
10.12.2019 22:12 4,4 C 3,9 C 3,3 C 83 % 1015,7 hPa 0,0 l/m 0 min 0 min 0 W/m 25,7 km/h (4 Bft) 97,87 %
10.12.2019 22:14 4,4 C 3,9 C 3,3 C 83 % 1015,5 hPa 0,0 l/m 0 min 0 min 0 W/m 29,0 km/h (5 Bft) 95,65 %
10.12.2019 22:16 4,5 C 3,9 C 3,3 C 83 % 1015,5 hPa 0,0 l/m 0 min 0 min 0 W/m 38,6 km/h (5 Bft) 93,62 %
10.12.2019 22:18 4,5 C 3,9 C 3,3 C 83 % 1015,5 hPa 0,0 l/m 0 min 0 min 0 W/m 38,6 km/h (5 Bft) 95,74 %
10.12.2019 22:20 4,5 C 3,9 C 3,3 C 83 % 1015,5 hPa 0,0 l/m 0 min 0 min 0 W/m 32,2 km/h (5 Bft) 95,74 %
10.12.2019 22:22 4,6 C 3,9 C 3,3 C 83 % 1015,5 hPa 0,0 l/m 0 min 0 min 0 W/m 25,7 km/h (4 Bft) 97,87 %
10.12.2019 22:24 4,6 C 3,9 C 3,3 C 83 % 1015,5 hPa 0,0 l/m 0 min 0 min 0 W/m 22,5 km/h (4 Bft) 95,65 %
10.12.2019 22:26 4,6 C 3,9 C 3,3 C 83 % 1015,4 hPa 0,0 l/m 0 min 0 min 0 W/m 25,7 km/h (4 Bft) 93,62 %
10.12.2019 22:28 4,6 C 3,9 C 3,3 C 83 % 1015,3 hPa 0,0 l/m 0 min 0 min 0 W/m 35,4 km/h (5 Bft) 97,87 %
10.12.2019 22:30 4,6 C 3,9 C 3,3 C 83 % 1015,3 hPa 0,0 l/m 0 min 0 min 0 W/m 29,0 km/h (5 Bft) 95,74 %
10.12.2019 22:32 4,6 C 3,9 C 3,3 C 83 % 1015,2 hPa 0,0 l/m 0 min 0 min 0 W/m 29,0 km/h (5 Bft) 95,74 %
10.12.2019 22:34 4,7 C 3,9 C 3,3 C 83 % 1015,2 hPa 0,0 l/m 0 min 0 min 0 W/m 22,5 km/h (4 Bft) 95,74 %
10.12.2019 22:36 4,7 C 3,9 C 3,3 C 83 % 1015,2 hPa 0,0 l/m 0 min 2 min 0 W/m 29,0 km/h (5 Bft) 93,62 %
10.12.2019 22:38 4,7 C 3,9 C 3,3 C 83 % 1015,2 hPa 0,0 l/m 0 min 2 min 0 W/m 22,5 km/h (4 Bft) 95,65 %
10.12.2019 22:40 4,7 C 3,9 C 3,3 C 83 % 1015,1 hPa 0,0 l/m 0 min 0 min 0 W/m 22,5 km/h (4 Bft) 93,62 %
10.12.2019 22:42 4,7 C 3,9 C 3,3 C 83 % 1015,0 hPa 0,0 l/m 0 min 2 min 0 W/m 25,7 km/h (4 Bft) 95,74 %
10.12.2019 22:44 4,7 C 3,9 C 3,3 C 84 % 1015,1 hPa 0,0 l/m 0 min 0 min 0 W/m 22,5 km/h (4 Bft) 95,74 %
10.12.2019 22:46 4,7 C 3,9 C 3,3 C 84 % 1015,1 hPa 0,0 l/m 0 min 2 min 0 W/m 25,7 km/h (4 Bft) 95,74 %
10.12.2019 22:48 4,7 C 3,9 C 3,3 C 84 % 1015,1 hPa 0,0 l/m 0 min 0 min 0 W/m 25,7 km/h (4 Bft) 97,83 %
10.12.2019 22:50 4,7 C 3,9 C 3,3 C 84 % 1015,1 hPa 0,0 l/m 0 min 0 min 0 W/m 22,5 km/h (4 Bft) 95,74 %
10.12.2019 22:52 4,7 C 3,9 C 3,3 C 84 % 1015,0 hPa 0,0 l/m 0 min 0 min 0 W/m 22,5 km/h (4 Bft) 95,74 %
10.12.2019 22:54 4,7 C 3,9 C 3,3 C 84 % 1015,1 hPa 0,0 l/m 0 min 0 min 0 W/m 19,3 km/h (3 Bft) 95,74 %
10.12.2019 22:56 4,7 C 3,9 C 3,3 C 84 % 1015,1 hPa 0,0 l/m 0 min 0 min 0 W/m 16,1 km/h (3 Bft) 95,74 %
10.12.2019 22:58 4,7 C 3,9 C 3,3 C 84 % 1015,0 hPa 0,0 l/m 0 min 0 min 0 W/m 25,7 km/h (4 Bft) 97,87 %
10.12.2019 23:00 4,7 C 4,4 C 3,3 C 84 % 1015,0 hPa 0,0 l/m 0 min 0 min 0 W/m 29,0 km/h (5 Bft) 95,65 %
10.12.2019 23:02 4,7 C 4,4 C 3,3 C 84 % 1015,0 hPa 0,0 l/m 0 min 0 min 0 W/m 25,7 km/h (4 Bft) 97,87 %
10.12.2019 23:04 4,7 C 4,4 C 3,3 C 83 % 1014,9 hPa 0,0 l/m 0 min 0 min 0 W/m 25,7 km/h (4 Bft) 93,62 %
10.12.2019 23:06 4,7 C 4,4 C 3,9 C 83 % 1014,9 hPa 0,0 l/m 0 min 0 min 0 W/m 29,0 km/h (5 Bft) 95,74 %
10.12.2019 23:08 4,8 C 4,4 C 3,9 C 83 % 1014,8 hPa 0,0 l/m 0 min 0 min 0 W/m 35,4 km/h (5 Bft) 97,87 %
10.12.2019 23:10 4,8 C 4,4 C 3,9 C 83 % 1014,8 hPa 0,0 l/m 0 min 0 min 0 W/m 19,3 km/h (3 Bft) 97,87 %
10.12.2019 23:12 4,8 C 4,4 C 3,9 C 83 % 1014,8 hPa 0,0 l/m 0 min 0 min 0 W/m 19,3 km/h (3 Bft) 97,83 %
10.12.2019 23:14 4,8 C 4,4 C 3,9 C 83 % 1014,8 hPa 0,0 l/m 0 min 0 min 0 W/m 25,7 km/h (4 Bft) 100,00 %
10.12.2019 23:16 4,8 C 4,4 C 3,9 C 82 % 1014,7 hPa 0,0 l/m 0 min 0 min 0 W/m 12,9 km/h (3 Bft) 100,00 %
10.12.2019 23:18 4,8 C 4,4 C 3,9 C 82 % 1014,7 hPa 0,0 l/m 0 min 0 min 0 W/m 35,4 km/h (5 Bft) 100,00 %
10.12.2019 23:20 4,8 C 4,4 C 3,9 C 82 % 1014,7 hPa 0,0 l/m 0 min 0 min 0 W/m 22,5 km/h (4 Bft) 100,00 %
10.12.2019 23:22 4,9 C 4,4 C 3,9 C 82 % 1014,7 hPa 0,0 l/m 0 min 0 min 0 W/m 19,3 km/h (3 Bft) 100,00 %
10.12.2019 23:24 4,9 C 4,4 C 3,9 C 82 % 1014,7 hPa 0,0 l/m 0 min 0 min 0 W/m 25,7 km/h (4 Bft) 100,00 %
10.12.2019 23:26 4,9 C 4,4 C 3,9 C 81 % 1014,7 hPa 0,0 l/m 0 min 0 min 0 W/m 22,5 km/h (4 Bft) 97,87 %
10.12.2019 23:28 4,9 C 4,4 C 3,9 C 81 % 1014,6 hPa 0,0 l/m 0 min 0 min 0 W/m 19,3 km/h (3 Bft) 100,00 %
10.12.2019 23:30 4,9 C 4,4 C 3,9 C 81 % 1014,6 hPa 0,0 l/m 0 min 0 min 0 W/m 19,3 km/h (3 Bft) 100,00 %
10.12.2019 23:32 5,0 C 4,4 C 3,9 C 81 % 1014,6 hPa 0,0 l/m 0 min 0 min 0 W/m 22,5 km/h (4 Bft) 97,87 %
10.12.2019 23:34 5,0 C 4,4 C 3,9 C 81 % 1014,6 hPa 0,0 l/m 0 min 0 min 0 W/m 32,2 km/h (5 Bft) 100,00 %
10.12.2019 23:36 5,1 C 5,0 C 3,9 C 80 % 1014,5 hPa 0,0 l/m 0 min 0 min 0 W/m 29,0 km/h (5 Bft) 100,00 %
10.12.2019 23:38 5,1 C 5,0 C 3,9 C 80 % 1014,6 hPa 0,0 l/m 0 min 0 min 0 W/m 19,3 km/h (3 Bft) 97,87 %
10.12.2019 23:40 5,1 C 5,0 C 3,9 C 80 % 1014,6 hPa 0,0 l/m 0 min 0 min 0 W/m 19,3 km/h (3 Bft) 100,00 %
10.12.2019 23:42 5,1 C 5,0 C 3,9 C 80 % 1014,7 hPa 0,0 l/m 0 min 0 min 0 W/m 16,1 km/h (3 Bft) 100,00 %
10.12.2019 23:44 5,2 C 5,0 C 3,9 C 79 % 1014,7 hPa 0,0 l/m 0 min 0 min 0 W/m 29,0 km/h (5 Bft) 100,00 %
10.12.2019 23:46 5,2 C 5,0 C 3,9 C 79 % 1014,7 hPa 0,0 l/m 0 min 0 min 0 W/m 16,1 km/h (3 Bft) 97,83 %
10.12.2019 23:48 5,2 C 5,0 C 3,9 C 79 % 1014,7 hPa 0,0 l/m 0 min 0 min 0 W/m 22,5 km/h (4 Bft) 100,00 %
10.12.2019 23:50 5,2 C 5,0 C 3,9 C 79 % 1014,8 hPa 0,0 l/m 0 min 0 min 0 W/m 16,1 km/h (3 Bft) 100,00 %
10.12.2019 23:52 5,2 C 5,0 C 3,9 C 79 % 1014,7 hPa 0,0 l/m 0 min 0 min 0 W/m 16,1 km/h (3 Bft) 100,00 %
10.12.2019 23:54 5,3 C 5,0 C 3,9 C 79 % 1014,7 hPa 0,0 l/m 0 min 0 min 0 W/m 25,7 km/h (4 Bft) 100,00 %
10.12.2019 23:56 5,3 C 5,0 C 3,9 C 79 % 1014,8 hPa 0,0 l/m 0 min 0 min 0 W/m 29,0 km/h (5 Bft) 100,00 %
10.12.2019 23:58 5,3 C 5,0 C 4,4 C 78 % 1014,7 hPa 0,0 l/m 0 min 0 min 0 W/m 19,3 km/h (3 Bft) 100,00 %
_ Min-Zeit 07:32 07:00 05:22 14:12 23:36 - - - - 02:18 02:22
Minimum _ 1,3 C 0,0 C -0,6 C 77 % 1014,5 hPa - - - - 0,0 km/h (0 Bft) 51,16 %
_ Max-Zeit 13:42 12:22 12:58 09:20 09:58 01:16 10:08 22:10 13:02 20:26 00:00
Maximum _ 7,2 C 10,0 C 5,6 C 98 % 1026,8 hPa 0,2 l/m 2 min 2 min 283 W/m 45,1 km/h
O-SO (6 Bft)
100,00 %
Durchschnitt _ 4,0 C 3,8 C 2,7 C 89 % 1022,3 hPa #0,2 l/m #3:48 h #10 min. 131 W/m 14,2 km/h (3 Bft) 97,32 %
© 2019 W. Hausmann